Home > Products > Valid Products > TAF

000
FTUS41 KRNK 021756 CCA
TAFBLF
TAF COR
KBLF 021756Z 0218/0318 29010KT P6SM BKN035
     FM022100 31006KT P6SM SCT020
     FM030000 VRB03KT P6SM SCT250
     FM030900 14005KT P6SM OVC015
     FM031200 17008KT 4SM -FZDZ OVC004=



000
FTUS41 KRNK 021756 CCA
TAFBLF
TAF COR
KBLF 021756Z 0218/0318 29010KT P6SM BKN035
     FM022100 31006KT P6SM SCT020
     FM030000 VRB03KT P6SM SCT250
     FM030900 14005KT P6SM OVC015
     FM031200 17008KT 4SM -FZDZ OVC004=



000
FTUS41 KRNK 021756 CCA
TAFBLF
TAF COR
KBLF 021756Z 0218/0318 29010KT P6SM BKN035
     FM022100 31006KT P6SM SCT020
     FM030000 VRB03KT P6SM SCT250
     FM030900 14005KT P6SM OVC015
     FM031200 17008KT 4SM -FZDZ OVC004=



000
FTUS41 KRNK 021756 CCA
TAFBLF
TAF COR
KBLF 021756Z 0218/0318 29010KT P6SM BKN035
     FM022100 31006KT P6SM SCT020
     FM030000 VRB03KT P6SM SCT250
     FM030900 14005KT P6SM OVC015
     FM031200 17008KT 4SM -FZDZ OVC004=



000
FTUS41 KRNK 021722
TAFLYH
TAF
KLYH 021722Z 0218/0318 28009G18KT P6SM BKN100
     FM022100 30005KT P6SM SKC
     FM030000 VRB03KT P6SM SCT250
     FM030900 06003KT P6SM OVC025
     FM031600 15006KT 5SM -FZRA BR OVC025=



000
FTUS41 KRNK 021722
TAFBLF
TAF
KBLF 021722Z 0218/0318 29010KT P6SM BKN015
     FM022100 31006KT P6SM SCT020
     FM030000 VRB03KT P6SM SCT250
     FM030900 14005KT P6SM OVC015
     FM031200 17008KT 4SM -FZDZ OVC004=



000
FTUS41 KRNK 021722
TAFROA
TAF
KROA 021722Z 0218/0318 28015G25KT P6SM SCT020 BKN050
     FM021900 30012G20KT P6SM SCT250
     FM030000 32005KT P6SM SKC
     FM030900 13003KT P6SM OVC025
     FM031400 13005KT 5SM -FZRA BR OVC007=



000
FTUS41 KRNK 021722
TAFLWB
TAF
KLWB 021722Z 0218/0318 31008KT P6SM SCT030 BKN060
     FM022200 VRB03KT P6SM SCT250
     FM030700 05003KT P6SM OVC050
     FM031300 07007KT 5SM -FZRA OVC007=



000
FTUS41 KRNK 021722
TAFDAN
TAF
KDAN 021722Z 0218/0318 29012G20KT P6SM BKN100
     FM021900 30010KT P6SM SCT100
     FM030800 14005KT P6SM BKN015
     FM031200 07005KT P6SM OVC015=



000
FTUS41 KRNK 021722
TAFDAN
TAF
KDAN 021722Z 0218/0318 29012G20KT P6SM BKN100
     FM021900 30010KT P6SM SCT100
     FM030800 14005KT P6SM BKN015
     FM031200 07005KT P6SM OVC015=



000
FTUS41 KRNK 021722
TAFROA
TAF
KROA 021722Z 0218/0318 28015G25KT P6SM SCT020 BKN050
     FM021900 30012G20KT P6SM SCT250
     FM030000 32005KT P6SM SKC
     FM030900 13003KT P6SM OVC025
     FM031400 13005KT 5SM -FZRA BR OVC007=



000
FTUS41 KRNK 021722
TAFBLF
TAF
KBLF 021722Z 0218/0318 29010KT P6SM BKN015
     FM022100 31006KT P6SM SCT020
     FM030000 VRB03KT P6SM SCT250
     FM030900 14005KT P6SM OVC015
     FM031200 17008KT 4SM -FZDZ OVC004=



000
FTUS41 KRNK 021722
TAFLYH
TAF
KLYH 021722Z 0218/0318 28009G18KT P6SM BKN100
     FM022100 30005KT P6SM SKC
     FM030000 VRB03KT P6SM SCT250
     FM030900 06003KT P6SM OVC025
     FM031600 15006KT 5SM -FZRA BR OVC025=



000
FTUS41 KRNK 021722
TAFLWB
TAF
KLWB 021722Z 0218/0318 31008KT P6SM SCT030 BKN060
     FM022200 VRB03KT P6SM SCT250
     FM030700 05003KT P6SM OVC050
     FM031300 07007KT 5SM -FZRA OVC007=



000
FTUS41 KRNK 021600 AAE
TAFLWB
TAF AMD
KLWB 021600Z 0216/0312 31011G14KT P6SM SCT027 BKN035
     FM021700 31008KT P6SM SCT030 BKN060
     FM022200 VRB03KT P6SM SCT250
     FM030700 05003KT P6SM OVC050=



000
FTUS41 KRNK 021600 AAE
TAFLWB
TAF AMD
KLWB 021600Z 0216/0312 31011G14KT P6SM SCT027 BKN035
     FM021700 31008KT P6SM SCT030 BKN060
     FM022200 VRB03KT P6SM SCT250
     FM030700 05003KT P6SM OVC050=



000
FTUS41 KRNK 021600 AAE
TAFLWB
TAF AMD
KLWB 021600Z 0216/0312 31011G14KT P6SM SCT027 BKN035
     FM021700 31008KT P6SM SCT030 BKN060
     FM022200 VRB03KT P6SM SCT250
     FM030700 05003KT P6SM OVC050=



000
FTUS41 KRNK 021600 AAE
TAFLWB
TAF AMD
KLWB 021600Z 0216/0312 31011G14KT P6SM SCT027 BKN035
     FM021700 31008KT P6SM SCT030 BKN060
     FM022200 VRB03KT P6SM SCT250
     FM030700 05003KT P6SM OVC050=



000
FTUS41 KRNK 021558 AAJ
TAFBLF
TAF AMD
KBLF 021558Z 0216/0312 30012G19KT P6SM SCT010 BKN020
     FM021800 30010KT P6SM BKN015
     FM022100 31006KT P6SM SCT020
     FM030000 VRB03KT P6SM SCT250
     FM030900 14005KT P6SM OVC015=



000
FTUS41 KRNK 021558 AAJ
TAFBLF
TAF AMD
KBLF 021558Z 0216/0312 30012G19KT P6SM SCT010 BKN020
     FM021800 30010KT P6SM BKN015
     FM022100 31006KT P6SM SCT020
     FM030000 VRB03KT P6SM SCT250
     FM030900 14005KT P6SM OVC015=



000
FTUS41 KRNK 021530 AAI
TAFBLF
TAF AMD
KBLF 021530Z 0216/0312 30010G17KT P6SM BKN004 OVC010
     FM021800 30010KT P6SM BKN015
     FM022100 31006KT P6SM SCT020
     FM030000 VRB03KT P6SM SCT250
     FM030900 14005KT P6SM OVC015=



000
FTUS41 KRNK 021530 AAI
TAFBLF
TAF AMD
KBLF 021530Z 0216/0312 30010G17KT P6SM BKN004 OVC010
     FM021800 30010KT P6SM BKN015
     FM022100 31006KT P6SM SCT020
     FM030000 VRB03KT P6SM SCT250
     FM030900 14005KT P6SM OVC015=



000
FTUS41 KRNK 021522 AAH
TAFBLF
TAF AMD
KBLF 021522Z 0215/0312 30009G17KT 3SM BR OVC002
     FM021800 30010KT P6SM BKN015
     FM022100 31006KT P6SM SCT020
     FM030000 VRB03KT P6SM SCT250
     FM030900 14005KT P6SM OVC015=



000
FTUS41 KRNK 021512 AAG
TAFBLF
TAF AMD
KBLF 021512Z 0215/0312 31008G15KT 1 1/2SM BR OVC002
     FM021800 30010KT P6SM BKN015
     FM022100 31006KT P6SM SCT020
     FM030000 VRB03KT P6SM SCT250
     FM030900 14005KT P6SM OVC015=



000
FTUS41 KRNK 021512 AAG
TAFBLF
TAF AMD
KBLF 021512Z 0215/0312 31008G15KT 1 1/2SM BR OVC002
     FM021800 30010KT P6SM BKN015
     FM022100 31006KT P6SM SCT020
     FM030000 VRB03KT P6SM SCT250
     FM030900 14005KT P6SM OVC015=



000
FTUS41 KRNK 021512 AAG
TAFBLF
TAF AMD
KBLF 021512Z 0215/0312 31008G15KT 1 1/2SM BR OVC002
     FM021800 30010KT P6SM BKN015
     FM022100 31006KT P6SM SCT020
     FM030000 VRB03KT P6SM SCT250
     FM030900 14005KT P6SM OVC015=



000
FTUS41 KRNK 021512 AAG
TAFBLF
TAF AMD
KBLF 021512Z 0215/0312 31008G15KT 1 1/2SM BR OVC002
     FM021800 30010KT P6SM BKN015
     FM022100 31006KT P6SM SCT020
     FM030000 VRB03KT P6SM SCT250
     FM030900 14005KT P6SM OVC015=



000
FTUS41 KRNK 021502 AAF
TAFBLF
TAF AMD
KBLF 021502Z 0215/0312 31009G15KT 2SM BR OVC004
     FM021800 30010KT P6SM BKN015
     FM022100 31006KT P6SM SCT020
     FM030000 VRB03KT P6SM SCT250
     FM030900 14005KT P6SM OVC015=



000
FTUS41 KRNK 021502 AAF
TAFBLF
TAF AMD
KBLF 021502Z 0215/0312 31009G15KT 2SM BR OVC004
     FM021800 30010KT P6SM BKN015
     FM022100 31006KT P6SM SCT020
     FM030000 VRB03KT P6SM SCT250
     FM030900 14005KT P6SM OVC015=



000
FTUS41 KRNK 021500 AAD
TAFLWB
TAF AMD
KLWB 021500Z 0215/0312 31007KT P6SM BKN019 OVC026
     FM021700 31008KT P6SM SCT030 BKN060
     FM022200 VRB03KT P6SM SCT250
     FM030700 05003KT P6SM OVC050=



000
FTUS41 KRNK 021500 AAD
TAFLWB
TAF AMD
KLWB 021500Z 0215/0312 31007KT P6SM BKN019 OVC026
     FM021700 31008KT P6SM SCT030 BKN060
     FM022200 VRB03KT P6SM SCT250
     FM030700 05003KT P6SM OVC050=



000
FTUS41 KRNK 021459 AAE
TAFDAN
TAF AMD
KDAN 021459Z 0215/0312 27007KT P6SM SCT030 BKN100
     FM021700 29012G20KT P6SM BKN100
     FM021900 30010KT P6SM SCT100
     FM030800 14005KT P6SM BKN015=



000
FTUS41 KRNK 021459 AAE
TAFDAN
TAF AMD
KDAN 021459Z 0215/0312 27007KT P6SM SCT030 BKN100
     FM021700 29012G20KT P6SM BKN100
     FM021900 30010KT P6SM SCT100
     FM030800 14005KT P6SM BKN015=



000
FTUS41 KRNK 021414 AAD
TAFDAN
TAF AMD
KDAN 021414Z 0214/0312 30005KT 3SM BR BKN002
     FM021500 27009KT P6SM SCT003 OVC015
     FM021700 29012G20KT P6SM BKN100
     FM021900 30010KT P6SM SCT100
     FM030800 14005KT P6SM BKN015=



000
FTUS41 KRNK 021411 AAC
TAFLWB
TAF AMD
KLWB 021411Z 0214/0312 31008G14KT 4SM BR OVC019
     FM021700 31008KT P6SM SCT030 BKN060
     FM022200 VRB03KT P6SM SCT250
     FM030700 05003KT P6SM OVC050=



000
FTUS41 KRNK 021411 AAC
TAFLWB
TAF AMD
KLWB 021411Z 0214/0312 31008G14KT 4SM BR OVC019
     FM021700 31008KT P6SM SCT030 BKN060
     FM022200 VRB03KT P6SM SCT250
     FM030700 05003KT P6SM OVC050=



000
FTUS41 KRNK 021411 AAC
TAFLWB
TAF AMD
KLWB 021411Z 0214/0312 31008G14KT 4SM BR OVC019
     FM021700 31008KT P6SM SCT030 BKN060
     FM022200 VRB03KT P6SM SCT250
     FM030700 05003KT P6SM OVC050=



000
FTUS41 KRNK 021411 AAC
TAFLWB
TAF AMD
KLWB 021411Z 0214/0312 31008G14KT 4SM BR OVC019
     FM021700 31008KT P6SM SCT030 BKN060
     FM022200 VRB03KT P6SM SCT250
     FM030700 05003KT P6SM OVC050=



000
FTUS41 KRNK 021410 AAE
TAFBLF
TAF AMD
KBLF 021410Z 0214/0312 29012G22KT P6SM OVC007
     FM021800 30010KT P6SM BKN015
     FM022100 31006KT P6SM SCT020
     FM030000 VRB03KT P6SM SCT250
     FM030900 14005KT P6SM OVC015=



000
FTUS41 KRNK 021410 AAE
TAFBLF
TAF AMD
KBLF 021410Z 0214/0312 29012G22KT P6SM OVC007
     FM021800 30010KT P6SM BKN015
     FM022100 31006KT P6SM SCT020
     FM030000 VRB03KT P6SM SCT250
     FM030900 14005KT P6SM OVC015=



000
FTUS41 KRNK 021408 AAC
TAFDAN
TAF AMD
KDAN 021408Z 0214/0312 28005KT 1SM BR VV002
     FM021500 27009KT P6SM SCT003 OVC015
     FM021700 29012G20KT P6SM BKN100
     FM021900 30010KT P6SM SCT100
     FM030800 14005KT P6SM BKN015=



000
FTUS41 KRNK 021408 AAC
TAFDAN
TAF AMD
KDAN 021408Z 0214/0312 28005KT 1SM BR VV002
     FM021500 27009KT P6SM SCT003 OVC015
     FM021700 29012G20KT P6SM BKN100
     FM021900 30010KT P6SM SCT100
     FM030800 14005KT P6SM BKN015=



000
FTUS41 KRNK 021401 AAD
TAFBLF
TAF AMD
KBLF 021401Z 0214/0312 30011G19KT 2SM -SN BR OVC005
     FM021600 29012G22KT P6SM OVC007
     FM021800 30010KT P6SM BKN015
     FM022100 31006KT P6SM SCT020
     FM030000 VRB03KT P6SM SCT250
     FM030900 14005KT P6SM OVC015=



000
FTUS41 KRNK 021401 AAD
TAFBLF
TAF AMD
KBLF 021401Z 0214/0312 30011G19KT 2SM -SN BR OVC005
     FM021600 29012G22KT P6SM OVC007
     FM021800 30010KT P6SM BKN015
     FM022100 31006KT P6SM SCT020
     FM030000 VRB03KT P6SM SCT250
     FM030900 14005KT P6SM OVC015=



000
FTUS41 KRNK 021401 AAD
TAFBLF
TAF AMD
KBLF 021401Z 0214/0312 30011G19KT 2SM -SN BR OVC005
     FM021600 29012G22KT P6SM OVC007
     FM021800 30010KT P6SM BKN015
     FM022100 31006KT P6SM SCT020
     FM030000 VRB03KT P6SM SCT250
     FM030900 14005KT P6SM OVC015=



000
FTUS41 KRNK 021401 AAB
TAFDAN
TAF AMD
KDAN 021401Z 0214/0312 24009KT 1/4SM FG OVC002
     FM021500 27009KT P6SM SCT003 OVC015
     FM021700 29012G20KT P6SM BKN100
     FM021900 30010KT P6SM SCT100
     FM030800 14005KT P6SM BKN015=



000
FTUS41 KRNK 021401 AAB
TAFDAN
TAF AMD
KDAN 021401Z 0214/0312 24009KT 1/4SM FG OVC002
     FM021500 27009KT P6SM SCT003 OVC015
     FM021700 29012G20KT P6SM BKN100
     FM021900 30010KT P6SM SCT100
     FM030800 14005KT P6SM BKN015=



000
FTUS41 KRNK 021401 AAD
TAFBLF
TAF AMD
KBLF 021401Z 0214/0312 30011G19KT 2SM -SN BR OVC005
     FM021600 29012G22KT P6SM OVC007
     FM021800 30010KT P6SM BKN015
     FM022100 31006KT P6SM SCT020
     FM030000 VRB03KT P6SM SCT250
     FM030900 14005KT P6SM OVC015=



000
FTUS41 KRNK 021401 AAB
TAFDAN
TAF AMD
KDAN 021401Z 0214/0312 24009KT 1/4SM FG OVC002
     FM021500 27009KT P6SM SCT003 OVC015
     FM021700 29012G20KT P6SM BKN100
     FM021900 30010KT P6SM SCT100
     FM030800 14005KT P6SM BKN015=



000
FTUS41 KRNK 021401 AAB
TAFDAN
TAF AMD
KDAN 021401Z 0214/0312 24009KT 1/4SM FG OVC002
     FM021500 27009KT P6SM SCT003 OVC015
     FM021700 29012G20KT P6SM BKN100
     FM021900 30010KT P6SM SCT100
     FM030800 14005KT P6SM BKN015=



000
FTUS41 KRNK 021340 AAC
TAFBLF
TAF AMD
KBLF 021340Z 0214/0312 30011G19KT 1SM -SN BR OVC003
     FM021600 29012G22KT P6SM OVC007
     FM021800 30010KT P6SM BKN015
     FM022100 31006KT P6SM SCT020
     FM030000 VRB03KT P6SM SCT250
     FM030900 14005KT P6SM OVC015=



000
FTUS41 KRNK 021340 AAC
TAFBLF
TAF AMD
KBLF 021340Z 0214/0312 30011G19KT 1SM -SN BR OVC003
     FM021600 29012G22KT P6SM OVC007
     FM021800 30010KT P6SM BKN015
     FM022100 31006KT P6SM SCT020
     FM030000 VRB03KT P6SM SCT250
     FM030900 14005KT P6SM OVC015=



000
FTUS41 KRNK 021340 AAC
TAFBLF
TAF AMD
KBLF 021340Z 0214/0312 30011G19KT 1SM -SN BR OVC003
     FM021600 29012G22KT P6SM OVC007
     FM021800 30010KT P6SM BKN015
     FM022100 31006KT P6SM SCT020
     FM030000 VRB03KT P6SM SCT250
     FM030900 14005KT P6SM OVC015=



000
FTUS41 KRNK 021340 AAC
TAFBLF
TAF AMD
KBLF 021340Z 0214/0312 30011G19KT 1SM -SN BR OVC003
     FM021600 29012G22KT P6SM OVC007
     FM021800 30010KT P6SM BKN015
     FM022100 31006KT P6SM SCT020
     FM030000 VRB03KT P6SM SCT250
     FM030900 14005KT P6SM OVC015=



000
FTUS41 KRNK 021241 AAB
TAFLWB
TAF AMD
KLWB 021241Z 0213/0312 30012G20KT P6SM SCT015 OVC022
     FM021700 31008KT P6SM SCT030
     FM022200 VRB03KT P6SM SCT250
     FM030700 05003KT P6SM OVC050=



000
FTUS41 KRNK 021241 AAB
TAFLWB
TAF AMD
KLWB 021241Z 0213/0312 30012G20KT P6SM SCT015 OVC022
     FM021700 31008KT P6SM SCT030
     FM022200 VRB03KT P6SM SCT250
     FM030700 05003KT P6SM OVC050=



000
FTUS41 KRNK 021241 AAB
TAFBLF
TAF AMD
KBLF 021241Z 0213/0312 28013G23KT 3SM -SN BR OVC004
     FM021400 29012G22KT P6SM OVC007
     FM021800 30010KT P6SM BKN015
     FM022100 31006KT P6SM SCT020
     FM030000 VRB03KT P6SM SCT250
     FM030900 14005KT P6SM OVC015=



000
FTUS41 KRNK 021241 AAB
TAFLWB
TAF AMD
KLWB 021241Z 0213/0312 30012G20KT P6SM SCT015 OVC022
     FM021700 31008KT P6SM SCT030
     FM022200 VRB03KT P6SM SCT250
     FM030700 05003KT P6SM OVC050=



000
FTUS41 KRNK 021241 AAB
TAFLWB
TAF AMD
KLWB 021241Z 0213/0312 30012G20KT P6SM SCT015 OVC022
     FM021700 31008KT P6SM SCT030
     FM022200 VRB03KT P6SM SCT250
     FM030700 05003KT P6SM OVC050=



000
FTUS41 KRNK 021241 AAB
TAFBLF
TAF AMD
KBLF 021241Z 0213/0312 28013G23KT 3SM -SN BR OVC004
     FM021400 29012G22KT P6SM OVC007
     FM021800 30010KT P6SM BKN015
     FM022100 31006KT P6SM SCT020
     FM030000 VRB03KT P6SM SCT250
     FM030900 14005KT P6SM OVC015=



000
FTUS41 KRNK 021241 AAB
TAFBLF
TAF AMD
KBLF 021241Z 0213/0312 28013G23KT 3SM -SN BR OVC004
     FM021400 29012G22KT P6SM OVC007
     FM021800 30010KT P6SM BKN015
     FM022100 31006KT P6SM SCT020
     FM030000 VRB03KT P6SM SCT250
     FM030900 14005KT P6SM OVC015=



000
FTUS41 KRNK 021241 AAB
TAFBLF
TAF AMD
KBLF 021241Z 0213/0312 28013G23KT 3SM -SN BR OVC004
     FM021400 29012G22KT P6SM OVC007
     FM021800 30010KT P6SM BKN015
     FM022100 31006KT P6SM SCT020
     FM030000 VRB03KT P6SM SCT250
     FM030900 14005KT P6SM OVC015=



000
FTUS41 KRNK 021240 AAA
TAFDAN
TAF AMD
KDAN 021240Z 0213/0312 24009KT 1/4SM FG OVC002
     FM021400 27009KT P6SM SCT003 OVC015
     FM021600 29012G20KT P6SM BKN100
     FM021900 30010KT P6SM SCT100
     FM030800 14005KT P6SM BKN015=



000
FTUS41 KRNK 021240 AAA
TAFDAN
TAF AMD
KDAN 021240Z 0213/0312 24009KT 1/4SM FG OVC002
     FM021400 27009KT P6SM SCT003 OVC015
     FM021600 29012G20KT P6SM BKN100
     FM021900 30010KT P6SM SCT100
     FM030800 14005KT P6SM BKN015=



000
FTUS41 KRNK 021240 AAA
TAFDAN
TAF AMD
KDAN 021240Z 0213/0312 24009KT 1/4SM FG OVC002
     FM021400 27009KT P6SM SCT003 OVC015
     FM021600 29012G20KT P6SM BKN100
     FM021900 30010KT P6SM SCT100
     FM030800 14005KT P6SM BKN015=



000
FTUS41 KRNK 021240 AAA
TAFDAN
TAF AMD
KDAN 021240Z 0213/0312 24009KT 1/4SM FG OVC002
     FM021400 27009KT P6SM SCT003 OVC015
     FM021600 29012G20KT P6SM BKN100
     FM021900 30010KT P6SM SCT100
     FM030800 14005KT P6SM BKN015=



000
FTUS41 KRNK 021239 AAA
TAFLYH
TAF AMD
KLYH 021239Z 0213/0312 22005KT P6SM SCT035
     FM021500 30010G20KT P6SM BKN100
     FM022100 30005KT P6SM SKC
     FM030000 VRB03KT P6SM SCT250
     FM030900 06003KT P6SM OVC025=



000
FTUS41 KRNK 021239 AAB
TAFROA
TAF AMD
KROA 021239Z 0213/0312 26010KT P6SM OVC028 WS020/30042KT
     FM021400 28015G25KT P6SM SCT020 BKN050
     FM021900 30012G20KT P6SM SCT250
     FM030000 32005KT P6SM SKC
     FM030900 13003KT P6SM OVC025=



000
FTUS41 KRNK 021239 AAB
TAFROA
TAF AMD
KROA 021239Z 0213/0312 26010KT P6SM OVC028 WS020/30042KT
     FM021400 28015G25KT P6SM SCT020 BKN050
     FM021900 30012G20KT P6SM SCT250
     FM030000 32005KT P6SM SKC
     FM030900 13003KT P6SM OVC025=



000
FTUS41 KRNK 021239 AAB
TAFROA
TAF AMD
KROA 021239Z 0213/0312 26010KT P6SM OVC028 WS020/30042KT
     FM021400 28015G25KT P6SM SCT020 BKN050
     FM021900 30012G20KT P6SM SCT250
     FM030000 32005KT P6SM SKC
     FM030900 13003KT P6SM OVC025=



000
FTUS41 KRNK 021239 AAB
TAFROA
TAF AMD
KROA 021239Z 0213/0312 26010KT P6SM OVC028 WS020/30042KT
     FM021400 28015G25KT P6SM SCT020 BKN050
     FM021900 30012G20KT P6SM SCT250
     FM030000 32005KT P6SM SKC
     FM030900 13003KT P6SM OVC025=



000
FTUS41 KRNK 021239 AAA
TAFLYH
TAF AMD
KLYH 021239Z 0213/0312 22005KT P6SM SCT035
     FM021500 30010G20KT P6SM BKN100
     FM022100 30005KT P6SM SKC
     FM030000 VRB03KT P6SM SCT250
     FM030900 06003KT P6SM OVC025=



000
FTUS41 KRNK 021239 AAA
TAFLYH
TAF AMD
KLYH 021239Z 0213/0312 22005KT P6SM SCT035
     FM021500 30010G20KT P6SM BKN100
     FM022100 30005KT P6SM SKC
     FM030000 VRB03KT P6SM SCT250
     FM030900 06003KT P6SM OVC025=



000
FTUS41 KRNK 021239 AAA
TAFLYH
TAF AMD
KLYH 021239Z 0213/0312 22005KT P6SM SCT035
     FM021500 30010G20KT P6SM BKN100
     FM022100 30005KT P6SM SKC
     FM030000 VRB03KT P6SM SCT250
     FM030900 06003KT P6SM OVC025=



000
FTUS41 KRNK 021150 AAA
TAFBLF
TAF AMD
KBLF 021150Z 0212/0312 28010KT 5SM BR OVC003
     FM021400 29012G20KT P6SM OVC007
     FM021800 30010KT P6SM BKN015
     FM022100 31006KT P6SM SCT020
     FM030000 VRB03KT P6SM SCT250
     FM030900 14005KT P6SM OVC015=



000
FTUS41 KRNK 021150 AAA
TAFROA
TAF AMD
KROA 021150Z 0212/0312 26010KT P6SM OVC035 WS020/30042KT
     FM021400 28015G25KT P6SM SCT020 BKN050
     FM021900 30012G20KT P6SM SCT250
     FM030000 32005KT P6SM SKC
     FM030900 13003KT P6SM OVC025=



000
FTUS41 KRNK 021150 AAA
TAFLWB
TAF AMD
KLWB 021150Z 0212/0312 30012G20KT P6SM SCT005 OVC015
     FM021700 31008KT P6SM SCT030
     FM022200 VRB03KT P6SM SCT250
     FM030700 05003KT P6SM OVC050=



000
FTUS41 KRNK 021140
TAFBLF
TAF
KBLF 021140Z 0212/0312 28012KT 5SM BR OVC003
     FM021400 29012G20KT P6SM OVC007
     FM021800 30008KT P6SM BKN015
     FM022100 30006KT P6SM SCT020
     FM030200 VRB03KT P6SM BKN250=



000
FTUS41 KRNK 021140
TAFLYH
TAF
KLYH 021140Z 0212/0312 22005KT 5SM BR SCT015 OVC050
     FM021500 30010G20KT P6SM BKN100
     FM022100 30005KT P6SM SKC
     FM030000 VRB03KT P6SM SCT250
     FM030900 06003KT P6SM OVC025=



000
FTUS41 KRNK 021140
TAFDAN
TAF
KDAN 021140Z 0212/0312 24009KT 1SM BR OVC002
     FM021300 27009KT P6SM SCT003 OVC015
     FM021600 29012G20KT P6SM BKN100
     FM021900 30010KT P6SM SCT100
     FM030800 14005KT P6SM BKN015=



000
FTUS41 KRNK 021140
TAFBLF
TAF
KBLF 021140Z 0212/0312 28012KT 5SM BR OVC003
     FM021400 29012G20KT P6SM OVC007
     FM021800 30008KT P6SM BKN015
     FM022100 30006KT P6SM SCT020
     FM030200 VRB03KT P6SM BKN250=



000
FTUS41 KRNK 021140
TAFLYH
TAF
KLYH 021140Z 0212/0312 22005KT 5SM BR SCT015 OVC050
     FM021500 30010G20KT P6SM BKN100
     FM022100 30005KT P6SM SKC
     FM030000 VRB03KT P6SM SCT250
     FM030900 06003KT P6SM OVC025=



000
FTUS41 KRNK 021140
TAFDAN
TAF
KDAN 021140Z 0212/0312 24009KT 1SM BR OVC002
     FM021300 27009KT P6SM SCT003 OVC015
     FM021600 29012G20KT P6SM BKN100
     FM021900 30010KT P6SM SCT100
     FM030800 14005KT P6SM BKN015=



000
FTUS41 KRNK 021140
TAFROA
TAF
KROA 021140Z 0212/0312 26010KT P6SM OVC035
     FM021400 28015G25KT P6SM SCT020 BKN050
     FM021900 30012G20KT P6SM SCT250
     FM030000 32005KT P6SM SKC
     FM030900 13003KT P6SM OVC025=



000
FTUS41 KRNK 021140
TAFLWB
TAF
KLWB 021140Z 0212/0312 30012G20KT P6SM SCT005 OVC015
     FM021400 30010G17KT P6SM BKN025
     FM021900 30008KT P6SM SCT030
     FM022200 31003KT P6SM SCT250=



000
FTUS41 KRNK 021140
TAFROA
TAF
KROA 021140Z 0212/0312 26010KT P6SM OVC035
     FM021400 28015G25KT P6SM SCT020 BKN050
     FM021900 30012G20KT P6SM SCT250
     FM030000 32005KT P6SM SKC
     FM030900 13003KT P6SM OVC025=



000
FTUS41 KRNK 021140
TAFLWB
TAF
KLWB 021140Z 0212/0312 30012G20KT P6SM SCT005 OVC015
     FM021400 30010G17KT P6SM BKN025
     FM021900 30008KT P6SM SCT030
     FM022200 31003KT P6SM SCT250=



000
FTUS41 KRNK 021140
TAFDAN
TAF
KDAN 021140Z 0212/0312 24009KT 1SM BR OVC002
     FM021300 27009KT P6SM SCT003 OVC015
     FM021600 29012G20KT P6SM BKN100
     FM021900 30010KT P6SM SCT100
     FM030800 14005KT P6SM BKN015=



000
FTUS41 KRNK 021140
TAFLWB
TAF
KLWB 021140Z 0212/0312 30012G20KT P6SM SCT005 OVC015
     FM021400 30010G17KT P6SM BKN025
     FM021900 30008KT P6SM SCT030
     FM022200 31003KT P6SM SCT250=



000
FTUS41 KRNK 021140
TAFBLF
TAF
KBLF 021140Z 0212/0312 28012KT 5SM BR OVC003
     FM021400 29012G20KT P6SM OVC007
     FM021800 30008KT P6SM BKN015
     FM022100 30006KT P6SM SCT020
     FM030200 VRB03KT P6SM BKN250=



000
FTUS41 KRNK 021140
TAFLYH
TAF
KLYH 021140Z 0212/0312 22005KT 5SM BR SCT015 OVC050
     FM021500 30010G20KT P6SM BKN100
     FM022100 30005KT P6SM SKC
     FM030000 VRB03KT P6SM SCT250
     FM030900 06003KT P6SM OVC025=



000
FTUS41 KRNK 021140
TAFROA
TAF
KROA 021140Z 0212/0312 26010KT P6SM OVC035
     FM021400 28015G25KT P6SM SCT020 BKN050
     FM021900 30012G20KT P6SM SCT250
     FM030000 32005KT P6SM SKC
     FM030900 13003KT P6SM OVC025=



000
FTUS41 KRNK 021140
TAFDAN
TAF
KDAN 021140Z 0212/0312 24009KT 1SM BR OVC002
     FM021300 27009KT P6SM SCT003 OVC015
     FM021600 29012G20KT P6SM BKN100
     FM021900 30010KT P6SM SCT100
     FM030800 14005KT P6SM BKN015=



000
FTUS41 KRNK 021140
TAFLYH
TAF
KLYH 021140Z 0212/0312 22005KT 5SM BR SCT015 OVC050
     FM021500 30010G20KT P6SM BKN100
     FM022100 30005KT P6SM SKC
     FM030000 VRB03KT P6SM SCT250
     FM030900 06003KT P6SM OVC025=



000
FTUS41 KRNK 021140
TAFLWB
TAF
KLWB 021140Z 0212/0312 30012G20KT P6SM SCT005 OVC015
     FM021400 30010G17KT P6SM BKN025
     FM021900 30008KT P6SM SCT030
     FM022200 31003KT P6SM SCT250=



000
FTUS41 KRNK 021140
TAFROA
TAF
KROA 021140Z 0212/0312 26010KT P6SM OVC035
     FM021400 28015G25KT P6SM SCT020 BKN050
     FM021900 30012G20KT P6SM SCT250
     FM030000 32005KT P6SM SKC
     FM030900 13003KT P6SM OVC025=



000
FTUS41 KRNK 021140
TAFBLF
TAF
KBLF 021140Z 0212/0312 28012KT 5SM BR OVC003
     FM021400 29012G20KT P6SM OVC007
     FM021800 30008KT P6SM BKN015
     FM022100 30006KT P6SM SCT020
     FM030200 VRB03KT P6SM BKN250=



000
FTUS41 KRNK 021110 AAB
TAFLWB
TAF AMD
KLWB 021110Z 0211/0306 30012KT P6SM SCT005 OVC015
     FM021400 30010G17KT P6SM BKN025
     FM021900 30008KT P6SM SCT030
     FM022200 31003KT P6SM SCT250=



000
FTUS41 KRNK 021110 AAB
TAFLWB
TAF AMD
KLWB 021110Z 0211/0306 30012KT P6SM SCT005 OVC015
     FM021400 30010G17KT P6SM BKN025
     FM021900 30008KT P6SM SCT030
     FM022200 31003KT P6SM SCT250=



000
FTUS41 KRNK 021109 AAD
TAFBLF
TAF AMD
KBLF 021109Z 0211/0306 27012KT 5SM BR OVC003
     FM021400 29012G20KT P6SM OVC007
     FM021800 30008KT P6SM BKN015
     FM022100 30006KT P6SM SCT020
     FM030200 VRB03KT P6SM BKN250=



000
FTUS41 KRNK 021109 AAC
TAFROA
TAF AMD
KROA 021109Z 0211/0306 26010KT P6SM OVC035
     FM021300 30012G20KT P6SM SCT020 BKN050
     FM022000 32008KT P6SM SCT250
     FM030200 36004KT P6SM BKN250=



000
FTUS41 KRNK 021109 AAC
TAFROA
TAF AMD
KROA 021109Z 0211/0306 26010KT P6SM OVC035
     FM021300 30012G20KT P6SM SCT020 BKN050
     FM022000 32008KT P6SM SCT250
     FM030200 36004KT P6SM BKN250=



000
FTUS41 KRNK 021109 AAD
TAFBLF
TAF AMD
KBLF 021109Z 0211/0306 27012KT 5SM BR OVC003
     FM021400 29012G20KT P6SM OVC007
     FM021800 30008KT P6SM BKN015
     FM022100 30006KT P6SM SCT020
     FM030200 VRB03KT P6SM BKN250=



000
FTUS41 KRNK 021108 AAA
TAFLYH
TAF AMD
KLYH 021108Z 0211/0306 22004KT 5SM BR SCT003 BKN100
     FM021200 25005KT P6SM SCT015 OVC050
     FM021500 30009G18KT P6SM BKN050
     FM022000 32007KT P6SM SCT250
     FM030200 02004KT P6SM BKN250=



000
FTUS41 KRNK 021108 AAA
TAFLYH
TAF AMD
KLYH 021108Z 0211/0306 22004KT 5SM BR SCT003 BKN100
     FM021200 25005KT P6SM SCT015 OVC050
     FM021500 30009G18KT P6SM BKN050
     FM022000 32007KT P6SM SCT250
     FM030200 02004KT P6SM BKN250=



000
FTUS41 KRNK 020906 AAB
TAFROA
TAF AMD
KROA 020906Z 0209/0306 27012KT P6SM OVC045
     FM021100 30012G20KT P6SM SCT020 BKN050
     FM022000 32008KT P6SM SCT250
     FM030200 36004KT P6SM BKN250=



000
FTUS41 KRNK 020712 AAC
TAFBLF
TAF AMD
KBLF 020712Z 0207/0306 27010G18KT 1SM -RA BR OVC002
     FM021200 28010KT 2SM -SN OVC004
     FM021400 29012G20KT P6SM OVC007
     FM021800 30008KT P6SM BKN015
     FM022100 30006KT P6SM SCT020
     FM030200 VRB03KT P6SM BKN250=



000
FTUS41 KRNK 020712 AAC
TAFBLF
TAF AMD
KBLF 020712Z 0207/0306 27010G18KT 1SM -RA BR OVC002
     FM021200 28010KT 2SM -SN OVC004
     FM021400 29012G20KT P6SM OVC007
     FM021800 30008KT P6SM BKN015
     FM022100 30006KT P6SM SCT020
     FM030200 VRB03KT P6SM BKN250=



000
FTUS41 KRNK 020711 AAA
TAFROA
TAF AMD
KROA 020711Z 0207/0306 26011KT P6SM SCT030
     FM020900 29007KT P6SM BKN025 OVC045
     FM021200 30012G20KT P6SM SCT020 BKN050
     FM022000 32008KT P6SM SCT250
     FM030200 36004KT P6SM BKN250=



000
FTUS41 KRNK 020711 AAA
TAFROA
TAF AMD
KROA 020711Z 0207/0306 26011KT P6SM SCT030
     FM020900 29007KT P6SM BKN025 OVC045
     FM021200 30012G20KT P6SM SCT020 BKN050
     FM022000 32008KT P6SM SCT250
     FM030200 36004KT P6SM BKN250=



000
FTUS41 KRNK 020701 AAA
TAFLWB
TAF AMD
KLWB 020701Z 0207/0306 25008KT 6SM BR OVC006
     FM021000 28007KT 4SM -SN SCT005 OVC012
     FM021300 30009KT P6SM OVC015
     FM021500 30010G17KT P6SM BKN025
     FM021900 30008KT P6SM SCT030
     FM022200 31003KT P6SM SCT250=



000
FTUS41 KRNK 020701 AAA
TAFLWB
TAF AMD
KLWB 020701Z 0207/0306 25008KT 6SM BR OVC006
     FM021000 28007KT 4SM -SN SCT005 OVC012
     FM021300 30009KT P6SM OVC015
     FM021500 30010G17KT P6SM BKN025
     FM021900 30008KT P6SM SCT030
     FM022200 31003KT P6SM SCT250=



000
FTUS41 KRNK 020701 AAA
TAFLWB
TAF AMD
KLWB 020701Z 0207/0306 25008KT 6SM BR OVC006
     FM021000 28007KT 4SM -SN SCT005 OVC012
     FM021300 30009KT P6SM OVC015
     FM021500 30010G17KT P6SM BKN025
     FM021900 30008KT P6SM SCT030
     FM022200 31003KT P6SM SCT250=



000
FTUS41 KRNK 020630 AAB
TAFBLF
TAF AMD
KBLF 020630Z 0207/0306 27012KT 1/2SM FG OVC002
     FM021200 28010KT 2SM -SN OVC004
     FM021400 29012G20KT P6SM OVC007
     FM021800 30008KT P6SM BKN015
     FM022100 30006KT P6SM SCT020
     FM030200 VRB03KT P6SM BKN250=



000
FTUS41 KRNK 020630 AAB
TAFBLF
TAF AMD
KBLF 020630Z 0207/0306 27012KT 1/2SM FG OVC002
     FM021200 28010KT 2SM -SN OVC004
     FM021400 29012G20KT P6SM OVC007
     FM021800 30008KT P6SM BKN015
     FM022100 30006KT P6SM SCT020
     FM030200 VRB03KT P6SM BKN250=



000
FTUS41 KRNK 020630 AAB
TAFBLF
TAF AMD
KBLF 020630Z 0207/0306 27012KT 1/2SM FG OVC002
     FM021200 28010KT 2SM -SN OVC004
     FM021400 29012G20KT P6SM OVC007
     FM021800 30008KT P6SM BKN015
     FM022100 30006KT P6SM SCT020
     FM030200 VRB03KT P6SM BKN250=



000
FTUS41 KRNK 020630 AAB
TAFBLF
TAF AMD
KBLF 020630Z 0207/0306 27012KT 1/2SM FG OVC002
     FM021200 28010KT 2SM -SN OVC004
     FM021400 29012G20KT P6SM OVC007
     FM021800 30008KT P6SM BKN015
     FM022100 30006KT P6SM SCT020
     FM030200 VRB03KT P6SM BKN250=



000
FTUS41 KRNK 020621 AAA
TAFDAN
TAF AMD
KDAN 020621Z 0206/0306 23007KT 1/2SM FG OVC002
      TEMPO 0208/0210 1SM BR BKN004
     FM021200 25007KT 4SM BR OVC011
     FM021400 27007KT P6SM SCT015 OVC050
     FM021600 30008G16KT P6SM BKN070
     FM022100 34007KT P6SM SCT100 BKN250
     FM030200 04005KT P6SM BKN250=



000
FTUS41 KRNK 020621 AAA
TAFDAN
TAF AMD
KDAN 020621Z 0206/0306 23007KT 1/2SM FG OVC002
      TEMPO 0208/0210 1SM BR BKN004
     FM021200 25007KT 4SM BR OVC011
     FM021400 27007KT P6SM SCT015 OVC050
     FM021600 30008G16KT P6SM BKN070
     FM022100 34007KT P6SM SCT100 BKN250
     FM030200 04005KT P6SM BKN250=



000
FTUS41 KRNK 020621 AAA
TAFDAN
TAF AMD
KDAN 020621Z 0206/0306 23007KT 1/2SM FG OVC002
      TEMPO 0208/0210 1SM BR BKN004
     FM021200 25007KT 4SM BR OVC011
     FM021400 27007KT P6SM SCT015 OVC050
     FM021600 30008G16KT P6SM BKN070
     FM022100 34007KT P6SM SCT100 BKN250
     FM030200 04005KT P6SM BKN250=



000
FTUS41 KRNK 020621 AAA
TAFDAN
TAF AMD
KDAN 020621Z 0206/0306 23007KT 1/2SM FG OVC002
      TEMPO 0208/0210 1SM BR BKN004
     FM021200 25007KT 4SM BR OVC011
     FM021400 27007KT P6SM SCT015 OVC050
     FM021600 30008G16KT P6SM BKN070
     FM022100 34007KT P6SM SCT100 BKN250
     FM030200 04005KT P6SM BKN250=



000
FTUS41 KRNK 020610 AAA
TAFBLF
TAF AMD
KBLF 020610Z 0206/0306 26012KT 2SM BR OVC002
     FM020800 27010KT 1/2SM FG OVC001
     FM021200 28010KT 2SM -SN OVC004
     FM021400 29012G20KT P6SM OVC007
     FM021800 30008KT P6SM BKN015
     FM022100 30006KT P6SM SCT020
     FM030200 VRB03KT P6SM BKN250=



000
FTUS41 KRNK 020610 AAA
TAFBLF
TAF AMD
KBLF 020610Z 0206/0306 26012KT 2SM BR OVC002
     FM020800 27010KT 1/2SM FG OVC001
     FM021200 28010KT 2SM -SN OVC004
     FM021400 29012G20KT P6SM OVC007
     FM021800 30008KT P6SM BKN015
     FM022100 30006KT P6SM SCT020
     FM030200 VRB03KT P6SM BKN250=



000
FTUS41 KRNK 020610 AAA
TAFBLF
TAF AMD
KBLF 020610Z 0206/0306 26012KT 2SM BR OVC002
     FM020800 27010KT 1/2SM FG OVC001
     FM021200 28010KT 2SM -SN OVC004
     FM021400 29012G20KT P6SM OVC007
     FM021800 30008KT P6SM BKN015
     FM022100 30006KT P6SM SCT020
     FM030200 VRB03KT P6SM BKN250=



000
FTUS41 KRNK 020610 AAA
TAFBLF
TAF AMD
KBLF 020610Z 0206/0306 26012KT 2SM BR OVC002
     FM020800 27010KT 1/2SM FG OVC001
     FM021200 28010KT 2SM -SN OVC004
     FM021400 29012G20KT P6SM OVC007
     FM021800 30008KT P6SM BKN015
     FM022100 30006KT P6SM SCT020
     FM030200 VRB03KT P6SM BKN250=



000
FTUS41 KRNK 020537
TAFLYH
TAF
KLYH 020537Z 0206/0306 21004KT 3SM BR SCT003
     FM020900 23004KT 4SM BR SCT005 OVC011
     FM021200 25005KT P6SM SCT015 OVC050
     FM021500 30009G18KT P6SM BKN050
     FM022000 32007KT P6SM SCT250
     FM030200 02004KT P6SM BKN250=



000
FTUS41 KRNK 020537
TAFROA
TAF
KROA 020537Z 0206/0306 25004KT P6SM OVC035
     FM020900 29007KT P6SM BKN025 OVC045
     FM021200 30012G20KT P6SM SCT020 BKN050
     FM022000 32008KT P6SM SCT250
     FM030200 36004KT P6SM BKN250=



000
FTUS41 KRNK 020537
TAFBLF
TAF
KBLF 020537Z 0206/0306 26012KT 6SM BR OVC002
     FM020800 27010KT 1/2SM FG OVC001
     FM021200 28010KT 2SM -SN OVC004
     FM021400 29012G20KT P6SM OVC007
     FM021800 30008KT P6SM BKN015
     FM022100 30006KT P6SM SCT020
     FM030200 VRB03KT P6SM BKN250=



000
FTUS41 KRNK 020537
TAFBLF
TAF
KBLF 020537Z 0206/0306 26012KT 6SM BR OVC002
     FM020800 27010KT 1/2SM FG OVC001
     FM021200 28010KT 2SM -SN OVC004
     FM021400 29012G20KT P6SM OVC007
     FM021800 30008KT P6SM BKN015
     FM022100 30006KT P6SM SCT020
     FM030200 VRB03KT P6SM BKN250=



000
FTUS41 KRNK 020537
TAFLWB
TAF
KLWB 020537Z 0206/0306 00000KT 1/4SM FG OVC002
     FM021000 28007KT 4SM -SN SCT005 OVC012
     FM021300 30009KT P6SM OVC015
     FM021500 30010G17KT P6SM BKN025
     FM021900 30008KT P6SM SCT030
     FM022200 31003KT P6SM SCT250=



000
FTUS41 KRNK 020537
TAFLYH
TAF
KLYH 020537Z 0206/0306 21004KT 3SM BR SCT003
     FM020900 23004KT 4SM BR SCT005 OVC011
     FM021200 25005KT P6SM SCT015 OVC050
     FM021500 30009G18KT P6SM BKN050
     FM022000 32007KT P6SM SCT250
     FM030200 02004KT P6SM BKN250=



000
FTUS41 KRNK 020537
TAFROA
TAF
KROA 020537Z 0206/0306 25004KT P6SM OVC035
     FM020900 29007KT P6SM BKN025 OVC045
     FM021200 30012G20KT P6SM SCT020 BKN050
     FM022000 32008KT P6SM SCT250
     FM030200 36004KT P6SM BKN250=



000
FTUS41 KRNK 020537
TAFDAN
TAF
KDAN 020537Z 0206/0306 23007KT 2SM BR OVC007
      TEMPO 0206/0210 1SM BR BKN003
     FM021200 25007KT 4SM BR OVC011
     FM021400 27007KT P6SM SCT015 OVC050
     FM021600 30008G16KT P6SM BKN070
     FM022100 34007KT P6SM SCT100 BKN250
     FM030200 04005KT P6SM BKN250=



000
FTUS41 KRNK 020537
TAFROA
TAF
KROA 020537Z 0206/0306 25004KT P6SM OVC035
     FM020900 29007KT P6SM BKN025 OVC045
     FM021200 30012G20KT P6SM SCT020 BKN050
     FM022000 32008KT P6SM SCT250
     FM030200 36004KT P6SM BKN250=



000
FTUS41 KRNK 020537
TAFLWB
TAF
KLWB 020537Z 0206/0306 00000KT 1/4SM FG OVC002
     FM021000 28007KT 4SM -SN SCT005 OVC012
     FM021300 30009KT P6SM OVC015
     FM021500 30010G17KT P6SM BKN025
     FM021900 30008KT P6SM SCT030
     FM022200 31003KT P6SM SCT250=



000
FTUS41 KRNK 020537
TAFBLF
TAF
KBLF 020537Z 0206/0306 26012KT 6SM BR OVC002
     FM020800 27010KT 1/2SM FG OVC001
     FM021200 28010KT 2SM -SN OVC004
     FM021400 29012G20KT P6SM OVC007
     FM021800 30008KT P6SM BKN015
     FM022100 30006KT P6SM SCT020
     FM030200 VRB03KT P6SM BKN250=



000
FTUS41 KRNK 020537
TAFDAN
TAF
KDAN 020537Z 0206/0306 23007KT 2SM BR OVC007
      TEMPO 0206/0210 1SM BR BKN003
     FM021200 25007KT 4SM BR OVC011
     FM021400 27007KT P6SM SCT015 OVC050
     FM021600 30008G16KT P6SM BKN070
     FM022100 34007KT P6SM SCT100 BKN250
     FM030200 04005KT P6SM BKN250=



000
FTUS41 KRNK 020537
TAFLYH
TAF
KLYH 020537Z 0206/0306 21004KT 3SM BR SCT003
     FM020900 23004KT 4SM BR SCT005 OVC011
     FM021200 25005KT P6SM SCT015 OVC050
     FM021500 30009G18KT P6SM BKN050
     FM022000 32007KT P6SM SCT250
     FM030200 02004KT P6SM BKN250=



000
FTUS41 KRNK 020537
TAFDAN
TAF
KDAN 020537Z 0206/0306 23007KT 2SM BR OVC007
      TEMPO 0206/0210 1SM BR BKN003
     FM021200 25007KT 4SM BR OVC011
     FM021400 27007KT P6SM SCT015 OVC050
     FM021600 30008G16KT P6SM BKN070
     FM022100 34007KT P6SM SCT100 BKN250
     FM030200 04005KT P6SM BKN250=



000
FTUS41 KRNK 020537
TAFLWB
TAF
KLWB 020537Z 0206/0306 00000KT 1/4SM FG OVC002
     FM021000 28007KT 4SM -SN SCT005 OVC012
     FM021300 30009KT P6SM OVC015
     FM021500 30010G17KT P6SM BKN025
     FM021900 30008KT P6SM SCT030
     FM022200 31003KT P6SM SCT250=



000
FTUS41 KRNK 020537
TAFBLF
TAF
KBLF 020537Z 0206/0306 26012KT 6SM BR OVC002
     FM020800 27010KT 1/2SM FG OVC001
     FM021200 28010KT 2SM -SN OVC004
     FM021400 29012G20KT P6SM OVC007
     FM021800 30008KT P6SM BKN015
     FM022100 30006KT P6SM SCT020
     FM030200 VRB03KT P6SM BKN250=



000
FTUS41 KRNK 020537
TAFLWB
TAF
KLWB 020537Z 0206/0306 00000KT 1/4SM FG OVC002
     FM021000 28007KT 4SM -SN SCT005 OVC012
     FM021300 30009KT P6SM OVC015
     FM021500 30010G17KT P6SM BKN025
     FM021900 30008KT P6SM SCT030
     FM022200 31003KT P6SM SCT250=



000
FTUS41 KRNK 020537
TAFDAN
TAF
KDAN 020537Z 0206/0306 23007KT 2SM BR OVC007
      TEMPO 0206/0210 1SM BR BKN003
     FM021200 25007KT 4SM BR OVC011
     FM021400 27007KT P6SM SCT015 OVC050
     FM021600 30008G16KT P6SM BKN070
     FM022100 34007KT P6SM SCT100 BKN250
     FM030200 04005KT P6SM BKN250=



000
FTUS41 KRNK 020537
TAFROA
TAF
KROA 020537Z 0206/0306 25004KT P6SM OVC035
     FM020900 29007KT P6SM BKN025 OVC045
     FM021200 30012G20KT P6SM SCT020 BKN050
     FM022000 32008KT P6SM SCT250
     FM030200 36004KT P6SM BKN250=



000
FTUS41 KRNK 020537
TAFLYH
TAF
KLYH 020537Z 0206/0306 21004KT 3SM BR SCT003
     FM020900 23004KT 4SM BR SCT005 OVC011
     FM021200 25005KT P6SM SCT015 OVC050
     FM021500 30009G18KT P6SM BKN050
     FM022000 32007KT P6SM SCT250
     FM030200 02004KT P6SM BKN250=



000
FTUS41 KRNK 020407 AAA
TAFROA
TAF AMD
KROA 020407Z 0204/0224 00000KT P6SM SCT020 OVC035
     FM020600 25004KT 4SM BR OVC020
     FM020900 29007KT P6SM BKN040
     FM021200 30012G20KT P6SM BKN050
     FM022000 32008KT P6SM SCT250=



000
FTUS41 KRNK 020407 AAA
TAFROA
TAF AMD
KROA 020407Z 0204/0224 00000KT P6SM SCT020 OVC035
     FM020600 25004KT 4SM BR OVC020
     FM020900 29007KT P6SM BKN040
     FM021200 30012G20KT P6SM BKN050
     FM022000 32008KT P6SM SCT250=



000
FTUS41 KRNK 020407 AAA
TAFROA
TAF AMD
KROA 020407Z 0204/0224 00000KT P6SM SCT020 OVC035
     FM020600 25004KT 4SM BR OVC020
     FM020900 29007KT P6SM BKN040
     FM021200 30012G20KT P6SM BKN050
     FM022000 32008KT P6SM SCT250=



000
FTUS41 KRNK 020407 AAA
TAFROA
TAF AMD
KROA 020407Z 0204/0224 00000KT P6SM SCT020 OVC035
     FM020600 25004KT 4SM BR OVC020
     FM020900 29007KT P6SM BKN040
     FM021200 30012G20KT P6SM BKN050
     FM022000 32008KT P6SM SCT250=



000
FTUS41 KRNK 020227 AAA
TAFLWB
TAF AMD
KLWB 020227Z 0202/0224 00000KT 1SM BR SCT002 OVC007
      TEMPO 0202/0206 1/2SM FG VV002
     FM020900 28007KT 4SM -SN SCT005 OVC012
     FM021300 30009KT P6SM OVC015
     FM021500 30010G17KT P6SM BKN025
     FM021900 30008KT P6SM SCT030
     FM022200 31003KT P6SM SCT250=



000
FTUS41 KRNK 020227 AAA
TAFLWB
TAF AMD
KLWB 020227Z 0202/0224 00000KT 1SM BR SCT002 OVC007
      TEMPO 0202/0206 1/2SM FG VV002
     FM020900 28007KT 4SM -SN SCT005 OVC012
     FM021300 30009KT P6SM OVC015
     FM021500 30010G17KT P6SM BKN025
     FM021900 30008KT P6SM SCT030
     FM022200 31003KT P6SM SCT250=



000
FTUS41 KRNK 020225 AAA
TAFDAN
TAF AMD
KDAN 020225Z 0202/0224 23007KT 1SM BR OVC003
      TEMPO 0202/0206 1/4SM FG VV002
     FM020900 24007KT 2SM BR OVC004
     FM021200 25007KT 4SM BR OVC011
     FM021400 27007KT P6SM SCT015 OVC050
     FM021600 30008G16KT P6SM BKN070
     FM022100 34007KT P6SM SCT100 BKN250=



000
FTUS41 KRNK 020225 AAA
TAFDAN
TAF AMD
KDAN 020225Z 0202/0224 23007KT 1SM BR OVC003
      TEMPO 0202/0206 1/4SM FG VV002
     FM020900 24007KT 2SM BR OVC004
     FM021200 25007KT 4SM BR OVC011
     FM021400 27007KT P6SM SCT015 OVC050
     FM021600 30008G16KT P6SM BKN070
     FM022100 34007KT P6SM SCT100 BKN250=



000
FTUS41 KRNK 020225 AAA
TAFDAN
TAF AMD
KDAN 020225Z 0202/0224 23007KT 1SM BR OVC003
      TEMPO 0202/0206 1/4SM FG VV002
     FM020900 24007KT 2SM BR OVC004
     FM021200 25007KT 4SM BR OVC011
     FM021400 27007KT P6SM SCT015 OVC050
     FM021600 30008G16KT P6SM BKN070
     FM022100 34007KT P6SM SCT100 BKN250=



000
FTUS41 KRNK 020225 AAA
TAFDAN
TAF AMD
KDAN 020225Z 0202/0224 23007KT 1SM BR OVC003
      TEMPO 0202/0206 1/4SM FG VV002
     FM020900 24007KT 2SM BR OVC004
     FM021200 25007KT 4SM BR OVC011
     FM021400 27007KT P6SM SCT015 OVC050
     FM021600 30008G16KT P6SM BKN070
     FM022100 34007KT P6SM SCT100 BKN250=



000
FTUS41 KRNK 020222 AAA
TAFLYH
TAF AMD
KLYH 020222Z 0202/0224 21004KT 1SM BR OVC003
      TEMPO 0202/0206 1/4SM FG VV002
     FM020900 23004KT 4SM BR SCT005 OVC011
     FM021200 25005KT P6SM SCT015 OVC050
     FM021500 30009G18KT P6SM BKN050
     FM022000 32007KT P6SM SCT250=



000
FTUS41 KRNK 020222 AAA
TAFLYH
TAF AMD
KLYH 020222Z 0202/0224 21004KT 1SM BR OVC003
      TEMPO 0202/0206 1/4SM FG VV002
     FM020900 23004KT 4SM BR SCT005 OVC011
     FM021200 25005KT P6SM SCT015 OVC050
     FM021500 30009G18KT P6SM BKN050
     FM022000 32007KT P6SM SCT250=



000
FTUS41 KRNK 020220 AAA
TAFBLF
TAF AMD
KBLF 020220Z 0202/0224 26014KT 4SM BR OVC003
     FM020500 27008KT 1/2SM FG OVC001
     FM020900 28010KT 2SM -SN OVC004
     FM021400 29012G20KT P6SM OVC007
     FM021800 30008KT P6SM BKN015
     FM022100 30006KT P6SM SCT020=



000
FTUS41 KRNK 020220 AAA
TAFBLF
TAF AMD
KBLF 020220Z 0202/0224 26014KT 4SM BR OVC003
     FM020500 27008KT 1/2SM FG OVC001
     FM020900 28010KT 2SM -SN OVC004
     FM021400 29012G20KT P6SM OVC007
     FM021800 30008KT P6SM BKN015
     FM022100 30006KT P6SM SCT020=



000
FTUS41 KRNK 012330
TAFDAN
TAF
KDAN 012330Z 0200/0224 20003KT 4SM BR OVC003
     FM020600 23004KT 1SM BR OVC003
     FM021200 25003KT 4SM BR OVC011
     FM021400 27005KT P6SM SCT015 OVC050
     FM021600 30008G16KT P6SM BKN070
     FM022100 34007KT P6SM SCT100 BKN250=



000
FTUS41 KRNK 012330
TAFROA
TAF
KROA 012330Z 0200/0224 14004KT P6SM -RA SCT020 OVC035
     FM020400 25004KT 4SM BR OVC020
     FM020900 29007KT P6SM BKN040
     FM021200 30012G20KT P6SM BKN050
     FM022000 32008KT P6SM SCT250=



000
FTUS41 KRNK 012330
TAFLWB
TAF
KLWB 012330Z 0200/0224 00000KT 2SM -DZ BR OVC017
      TEMPO 0200/0202 4SM -RA SCT020 OVC045
     FM020300 26004KT 5SM BR OVC007
     FM020900 28007KT 4SM -SN SCT005 OVC012
     FM021300 30009KT P6SM OVC015
     FM021500 30010G17KT P6SM BKN025
     FM021900 30008KT P6SM SCT030
     FM022200 31003KT P6SM SCT250=



000
FTUS41 KRNK 012330
TAFLYH
TAF
KLYH 012330Z 0200/0224 21003KT 3SM BR OVC005
     FM020300 00000KT 1SM BR OVC002
     FM020900 23003KT 4SM BR SCT005 OVC011
     FM021200 25005KT P6SM SCT015 OVC050
     FM021500 30009G18KT P6SM BKN050
     FM022000 32007KT P6SM SCT250=



000
FTUS41 KRNK 012330
TAFBLF
TAF
KBLF 012330Z 0200/0224 24007KT 5SM BR BKN009 OVC017
      TEMPO 0200/0202 P6SM -RA SCT009 OVC017
     FM020500 26008KT 1/2SM FG OVC001
     FM020900 28010KT 2SM -SN OVC004
     FM021400 29012G20KT P6SM OVC007
     FM021800 30008KT P6SM BKN015
     FM022100 30006KT P6SM SCT020=



000
FTUS41 KRNK 012330
TAFBLF
TAF
KBLF 012330Z 0200/0224 24007KT 5SM BR BKN009 OVC017
      TEMPO 0200/0202 P6SM -RA SCT009 OVC017
     FM020500 26008KT 1/2SM FG OVC001
     FM020900 28010KT 2SM -SN OVC004
     FM021400 29012G20KT P6SM OVC007
     FM021800 30008KT P6SM BKN015
     FM022100 30006KT P6SM SCT020=



000
FTUS41 KRNK 012330
TAFBLF
TAF
KBLF 012330Z 0200/0224 24007KT 5SM BR BKN009 OVC017
      TEMPO 0200/0202 P6SM -RA SCT009 OVC017
     FM020500 26008KT 1/2SM FG OVC001
     FM020900 28010KT 2SM -SN OVC004
     FM021400 29012G20KT P6SM OVC007
     FM021800 30008KT P6SM BKN015
     FM022100 30006KT P6SM SCT020=



000
FTUS41 KRNK 012330
TAFLYH
TAF
KLYH 012330Z 0200/0224 21003KT 3SM BR OVC005
     FM020300 00000KT 1SM BR OVC002
     FM020900 23003KT 4SM BR SCT005 OVC011
     FM021200 25005KT P6SM SCT015 OVC050
     FM021500 30009G18KT P6SM BKN050
     FM022000 32007KT P6SM SCT250=



000
FTUS41 KRNK 012330
TAFLWB
TAF
KLWB 012330Z 0200/0224 00000KT 2SM -DZ BR OVC017
      TEMPO 0200/0202 4SM -RA SCT020 OVC045
     FM020300 26004KT 5SM BR OVC007
     FM020900 28007KT 4SM -SN SCT005 OVC012
     FM021300 30009KT P6SM OVC015
     FM021500 30010G17KT P6SM BKN025
     FM021900 30008KT P6SM SCT030
     FM022200 31003KT P6SM SCT250=



000
FTUS41 KRNK 012330
TAFDAN
TAF
KDAN 012330Z 0200/0224 20003KT 4SM BR OVC003
     FM020600 23004KT 1SM BR OVC003
     FM021200 25003KT 4SM BR OVC011
     FM021400 27005KT P6SM SCT015 OVC050
     FM021600 30008G16KT P6SM BKN070
     FM022100 34007KT P6SM SCT100 BKN250=



000
FTUS41 KRNK 012330
TAFDAN
TAF
KDAN 012330Z 0200/0224 20003KT 4SM BR OVC003
     FM020600 23004KT 1SM BR OVC003
     FM021200 25003KT 4SM BR OVC011
     FM021400 27005KT P6SM SCT015 OVC050
     FM021600 30008G16KT P6SM BKN070
     FM022100 34007KT P6SM SCT100 BKN250=



000
FTUS41 KRNK 012330
TAFROA
TAF
KROA 012330Z 0200/0224 14004KT P6SM -RA SCT020 OVC035
     FM020400 25004KT 4SM BR OVC020
     FM020900 29007KT P6SM BKN040
     FM021200 30012G20KT P6SM BKN050
     FM022000 32008KT P6SM SCT250=



000
FTUS41 KRNK 012330
TAFDAN
TAF
KDAN 012330Z 0200/0224 20003KT 4SM BR OVC003
     FM020600 23004KT 1SM BR OVC003
     FM021200 25003KT 4SM BR OVC011
     FM021400 27005KT P6SM SCT015 OVC050
     FM021600 30008G16KT P6SM BKN070
     FM022100 34007KT P6SM SCT100 BKN250=



000
FTUS41 KRNK 012330
TAFROA
TAF
KROA 012330Z 0200/0224 14004KT P6SM -RA SCT020 OVC035
     FM020400 25004KT 4SM BR OVC020
     FM020900 29007KT P6SM BKN040
     FM021200 30012G20KT P6SM BKN050
     FM022000 32008KT P6SM SCT250=



000
FTUS41 KRNK 012330
TAFLYH
TAF
KLYH 012330Z 0200/0224 21003KT 3SM BR OVC005
     FM020300 00000KT 1SM BR OVC002
     FM020900 23003KT 4SM BR SCT005 OVC011
     FM021200 25005KT P6SM SCT015 OVC050
     FM021500 30009G18KT P6SM BKN050
     FM022000 32007KT P6SM SCT250=



000
FTUS41 KRNK 012330
TAFLWB
TAF
KLWB 012330Z 0200/0224 00000KT 2SM -DZ BR OVC017
      TEMPO 0200/0202 4SM -RA SCT020 OVC045
     FM020300 26004KT 5SM BR OVC007
     FM020900 28007KT 4SM -SN SCT005 OVC012
     FM021300 30009KT P6SM OVC015
     FM021500 30010G17KT P6SM BKN025
     FM021900 30008KT P6SM SCT030
     FM022200 31003KT P6SM SCT250=



000
FTUS41 KRNK 012330
TAFLYH
TAF
KLYH 012330Z 0200/0224 21003KT 3SM BR OVC005
     FM020300 00000KT 1SM BR OVC002
     FM020900 23003KT 4SM BR SCT005 OVC011
     FM021200 25005KT P6SM SCT015 OVC050
     FM021500 30009G18KT P6SM BKN050
     FM022000 32007KT P6SM SCT250=



000
FTUS41 KRNK 012330
TAFBLF
TAF
KBLF 012330Z 0200/0224 24007KT 5SM BR BKN009 OVC017
      TEMPO 0200/0202 P6SM -RA SCT009 OVC017
     FM020500 26008KT 1/2SM FG OVC001
     FM020900 28010KT 2SM -SN OVC004
     FM021400 29012G20KT P6SM OVC007
     FM021800 30008KT P6SM BKN015
     FM022100 30006KT P6SM SCT020=



000
FTUS41 KRNK 012330
TAFROA
TAF
KROA 012330Z 0200/0224 14004KT P6SM -RA SCT020 OVC035
     FM020400 25004KT 4SM BR OVC020
     FM020900 29007KT P6SM BKN040
     FM021200 30012G20KT P6SM BKN050
     FM022000 32008KT P6SM SCT250=



000
FTUS41 KRNK 012330
TAFLWB
TAF
KLWB 012330Z 0200/0224 00000KT 2SM -DZ BR OVC017
      TEMPO 0200/0202 4SM -RA SCT020 OVC045
     FM020300 26004KT 5SM BR OVC007
     FM020900 28007KT 4SM -SN SCT005 OVC012
     FM021300 30009KT P6SM OVC015
     FM021500 30010G17KT P6SM BKN025
     FM021900 30008KT P6SM SCT030
     FM022200 31003KT P6SM SCT250=



000
FTUS41 KRNK 012246 AAC
TAFLWB
TAF AMD
KLWB 012246Z 0123/0218 00000KT 2SM -DZ BR OVC017
      TEMPO 0123/0202 4SM -RA SCT020 OVC045
     FM020300 26004KT 5SM BR OVC007
     FM020900 28007KT 4SM -SN SCT005 OVC012
     FM021300 30010G17KT P6SM OVC015=



000
FTUS41 KRNK 012246 AAC
TAFLWB
TAF AMD
KLWB 012246Z 0123/0218 00000KT 2SM -DZ BR OVC017
      TEMPO 0123/0202 4SM -RA SCT020 OVC045
     FM020300 26004KT 5SM BR OVC007
     FM020900 28007KT 4SM -SN SCT005 OVC012
     FM021300 30010G17KT P6SM OVC015=



000
FTUS41 KRNK 012243 AAB
TAFBLF
TAF AMD
KBLF 012243Z 0123/0218 24006KT P6SM -RA BKN015 OVC025
     FM020500 26008KT 1/2SM FG OVC001
     FM020900 28010KT 2SM -SN OVC005
     FM021400 29014G22KT P6SM OVC007=



000
FTUS41 KRNK 012243 AAB
TAFBLF
TAF AMD
KBLF 012243Z 0123/0218 24006KT P6SM -RA BKN015 OVC025
     FM020500 26008KT 1/2SM FG OVC001
     FM020900 28010KT 2SM -SN OVC005
     FM021400 29014G22KT P6SM OVC007=



000
FTUS41 KRNK 012241 AAC
TAFDAN
TAF AMD
KDAN 012241Z 0123/0218 23003KT 6SM BR OVC004
     FM020200 VRB03KT 3SM -DZ BR OVC005
     FM020600 24004KT 1SM BR OVC003
     FM021300 25003KT P6SM OVC050=



000
FTUS41 KRNK 012241 AAC
TAFDAN
TAF AMD
KDAN 012241Z 0123/0218 23003KT 6SM BR OVC004
     FM020200 VRB03KT 3SM -DZ BR OVC005
     FM020600 24004KT 1SM BR OVC003
     FM021300 25003KT P6SM OVC050=



000
FTUS41 KRNK 012238 AAD
TAFLYH
TAF AMD
KLYH 012238Z 0123/0218 21003KT 4SM BR OVC005
      TEMPO 0206/0210 1SM BR OVC002
     FM021200 25005KT P6SM OVC050
     FM021500 30009G18KT P6SM BKN050=



000
FTUS41 KRNK 012238 AAD
TAFLYH
TAF AMD
KLYH 012238Z 0123/0218 21003KT 4SM BR OVC005
      TEMPO 0206/0210 1SM BR OVC002
     FM021200 25005KT P6SM OVC050
     FM021500 30009G18KT P6SM BKN050=



000
FTUS41 KRNK 012236 AAB
TAFROA
TAF AMD
KROA 012236Z 0123/0218 12007KT P6SM -RA SCT020 OVC035
     FM020400 25004KT 4SM BR OVC020
     FM020900 29007KT P6SM BKN040
     FM021200 30012G24KT P6SM BKN050=



000
FTUS41 KRNK 012236 AAB
TAFROA
TAF AMD
KROA 012236Z 0123/0218 12007KT P6SM -RA SCT020 OVC035
     FM020400 25004KT 4SM BR OVC020
     FM020900 29007KT P6SM BKN040
     FM021200 30012G24KT P6SM BKN050=



000
FTUS41 KRNK 012106 AAB
TAFLWB
TAF AMD
KLWB 012106Z 0121/0218 00000KT 2SM -DZ SCT004 OVC023
     FM012200 00000KT 1SM -RA BR OVC004
     FM020300 26004KT 5SM BR OVC007
     FM020900 28007KT 4SM -SN SCT005 OVC012
     FM021300 30010G17KT P6SM OVC015=



000
FTUS41 KRNK 012106 AAB
TAFLWB
TAF AMD
KLWB 012106Z 0121/0218 00000KT 2SM -DZ SCT004 OVC023
     FM012200 00000KT 1SM -RA BR OVC004
     FM020300 26004KT 5SM BR OVC007
     FM020900 28007KT 4SM -SN SCT005 OVC012
     FM021300 30010G17KT P6SM OVC015=



000
FTUS41 KRNK 012105 AAB
TAFDAN
TAF AMD
KDAN 012105Z 0121/0218 13003KT 6SM BR BKN003 OVC035
     FM012300 18003KT 2SM -DZ BR OVC005
     FM020600 24004KT 1SM BR OVC003
     FM021300 25003KT P6SM OVC050=



000
FTUS41 KRNK 012105 AAB
TAFDAN
TAF AMD
KDAN 012105Z 0121/0218 13003KT 6SM BR BKN003 OVC035
     FM012300 18003KT 2SM -DZ BR OVC005
     FM020600 24004KT 1SM BR OVC003
     FM021300 25003KT P6SM OVC050=



000
FTUS41 KRNK 012026 AAA
TAFLWB
TAF AMD
KLWB 012026Z 0120/0218 36003KT 3SM BR SCT004 OVC025
     FM012200 00000KT 1SM -RA BR OVC004
     FM020300 26004KT 5SM BR OVC007
     FM020900 28007KT 4SM -SN SCT005 OVC012
     FM021300 30010G17KT P6SM OVC015=



000
FTUS41 KRNK 012025 AAA
TAFDAN
TAF AMD
KDAN 012025Z 0120/0218 13003KT 3SM BR BKN003 OVC035
     FM012300 18003KT 2SM -DZ BR OVC005
     FM020600 24004KT 1SM BR OVC003
     FM021300 25003KT P6SM OVC050=



000
FTUS41 KRNK 012025 AAA
TAFDAN
TAF AMD
KDAN 012025Z 0120/0218 13003KT 3SM BR BKN003 OVC035
     FM012300 18003KT 2SM -DZ BR OVC005
     FM020600 24004KT 1SM BR OVC003
     FM021300 25003KT P6SM OVC050=



000
FTUS41 KRNK 012025 AAA
TAFROA
TAF AMD
KROA 012025Z 0120/0218 12007KT P6SM SCT017 OVC035
     FM012300 18003KT P6SM VCSH OVC027
     FM020400 25004KT 4SM BR OVC020
     FM020900 29007KT P6SM BKN040
     FM021200 30012G24KT P6SM BKN050=



000
FTUS41 KRNK 012023 AAA
TAFBLF
TAF AMD
KBLF 012023Z 0120/0218 26010G20KT P6SM -RA SCT015 OVC025
     FM012300 23005KT 5SM -DZ BR OVC003
     FM020500 26008KT 1/2SM FG OVC001
     FM020900 28010KT 2SM -SN OVC005
     FM021400 29014G22KT P6SM OVC007=



000
FTUS41 KRNK 012023 AAA
TAFBLF
TAF AMD
KBLF 012023Z 0120/0218 26010G20KT P6SM -RA SCT015 OVC025
     FM012300 23005KT 5SM -DZ BR OVC003
     FM020500 26008KT 1/2SM FG OVC001
     FM020900 28010KT 2SM -SN OVC005
     FM021400 29014G22KT P6SM OVC007=



000
FTUS41 KRNK 012023 AAA
TAFBLF
TAF AMD
KBLF 012023Z 0120/0218 26010G20KT P6SM -RA SCT015 OVC025
     FM012300 23005KT 5SM -DZ BR OVC003
     FM020500 26008KT 1/2SM FG OVC001
     FM020900 28010KT 2SM -SN OVC005
     FM021400 29014G22KT P6SM OVC007=



000
FTUS41 KRNK 012023 AAA
TAFBLF
TAF AMD
KBLF 012023Z 0120/0218 26010G20KT P6SM -RA SCT015 OVC025
     FM012300 23005KT 5SM -DZ BR OVC003
     FM020500 26008KT 1/2SM FG OVC001
     FM020900 28010KT 2SM -SN OVC005
     FM021400 29014G22KT P6SM OVC007=



000
FTUS41 KRNK 011859 AAC
TAFLYH
TAF AMD
KLYH 011859Z 0119/0218 18005KT P6SM BKN006 OVC050
     FM012200 20004KT 2SM -RA BR OVC008
     FM020600 22003KT 4SM BR OVC025
     FM021000 24002KT 1SM BR OVC002
     FM021200 25005KT P6SM OVC050
     FM021500 30009G18KT P6SM BKN050=



000
FTUS41 KRNK 011859 AAC
TAFLYH
TAF AMD
KLYH 011859Z 0119/0218 18005KT P6SM BKN006 OVC050
     FM012200 20004KT 2SM -RA BR OVC008
     FM020600 22003KT 4SM BR OVC025
     FM021000 24002KT 1SM BR OVC002
     FM021200 25005KT P6SM OVC050
     FM021500 30009G18KT P6SM BKN050=



000
FTUS41 KRNK 011859 AAC
TAFLYH
TAF AMD
KLYH 011859Z 0119/0218 18005KT P6SM BKN006 OVC050
     FM012200 20004KT 2SM -RA BR OVC008
     FM020600 22003KT 4SM BR OVC025
     FM021000 24002KT 1SM BR OVC002
     FM021200 25005KT P6SM OVC050
     FM021500 30009G18KT P6SM BKN050=



000
FTUS41 KRNK 011859 AAC
TAFLYH
TAF AMD
KLYH 011859Z 0119/0218 18005KT P6SM BKN006 OVC050
     FM012200 20004KT 2SM -RA BR OVC008
     FM020600 22003KT 4SM BR OVC025
     FM021000 24002KT 1SM BR OVC002
     FM021200 25005KT P6SM OVC050
     FM021500 30009G18KT P6SM BKN050=



000
FTUS41 KRNK 011836 AAB
TAFLYH
TAF AMD
KLYH 011836Z 0119/0218 18003KT 6SM BR SCT013 OVC035
     FM012200 20004KT 2SM -RA BR OVC008
     FM020600 22003KT 4SM BR OVC025
     FM021000 24002KT 1SM BR OVC002
     FM021200 25005KT P6SM OVC050
     FM021500 30009G18KT P6SM BKN050=



000
FTUS41 KRNK 011836 AAB
TAFLYH
TAF AMD
KLYH 011836Z 0119/0218 18003KT 6SM BR SCT013 OVC035
     FM012200 20004KT 2SM -RA BR OVC008
     FM020600 22003KT 4SM BR OVC025
     FM021000 24002KT 1SM BR OVC002
     FM021200 25005KT P6SM OVC050
     FM021500 30009G18KT P6SM BKN050=



000
FTUS41 KRNK 011759 AAA
TAFLYH
TAF AMD
KLYH 011759Z 0118/0218 22003KT 1 1/2SM -FZRA BR OVC016
     FM012200 20004KT 2SM -RA BR OVC008
     FM020600 22003KT 4SM BR OVC025
     FM021000 24002KT 1SM BR OVC002
     FM021200 25005KT P6SM OVC050
     FM021500 30009G18KT P6SM BKN050=



000
FTUS41 KRNK 011759 AAA
TAFLYH
TAF AMD
KLYH 011759Z 0118/0218 22003KT 1 1/2SM -FZRA BR OVC016
     FM012200 20004KT 2SM -RA BR OVC008
     FM020600 22003KT 4SM BR OVC025
     FM021000 24002KT 1SM BR OVC002
     FM021200 25005KT P6SM OVC050
     FM021500 30009G18KT P6SM BKN050=



000
FTUS41 KRNK 011725
TAFBLF
TAF
KBLF 011725Z 0118/0218 21008KT P6SM SCT015 OVC035
     FM012000 23005KT 5SM -DZ BR OVC003
     FM020100 26008KT 1/2SM FG OVC001
     FM020900 28010KT 2SM -SN OVC005
     FM021400 29014G22KT P6SM OVC007=



000
FTUS41 KRNK 011725
TAFDAN
TAF
KDAN 011725Z 0118/0218 06002KT 6SM -FZRA BR SCT007 OVC017
      TEMPO 0118/0120 2SM -FZRA BR OVC007
     FM012100 18003KT 2SM -DZ BR OVC005
     FM020600 24004KT 1SM BR OVC003
     FM021300 25003KT P6SM OVC050=



000
FTUS41 KRNK 011725
TAFLYH
TAF
KLYH 011725Z 0118/0218 09002KT 6SM -FZRAPL BR OVC019
     FM012200 20004KT 2SM BR OVC008
     FM020600 22003KT 4SM BR OVC025
     FM021000 24002KT 1SM BR OVC002
     FM021200 25005KT P6SM OVC050
     FM021500 30009G18KT P6SM BKN050=



000
FTUS41 KRNK 011725
TAFROA
TAF
KROA 011725Z 0118/0218 12007KT P6SM SCT017 OVC035
     FM012000 18003KT P6SM OVC027
     FM020400 25004KT 4SM BR OVC020
     FM020900 29007KT P6SM BKN040
     FM021200 30012G24KT P6SM BKN050=



000
FTUS41 KRNK 011725
TAFLWB
TAF
KLWB 011725Z 0118/0218 03003KT 5SM -FZRAPL BR SCT004 OVC027
     FM012000 00000KT 1SM BR OVC004
     FM020300 26004KT 5SM BR OVC007
     FM020900 28007KT 4SM -SN SCT005 OVC012
     FM021300 30010G17KT P6SM OVC015=



000
FTUS41 KRNK 011725
TAFBLF
TAF
KBLF 011725Z 0118/0218 21008KT P6SM SCT015 OVC035
     FM012000 23005KT 5SM -DZ BR OVC003
     FM020100 26008KT 1/2SM FG OVC001
     FM020900 28010KT 2SM -SN OVC005
     FM021400 29014G22KT P6SM OVC007=



000
FTUS41 KRNK 011725
TAFDAN
TAF
KDAN 011725Z 0118/0218 06002KT 6SM -FZRA BR SCT007 OVC017
      TEMPO 0118/0120 2SM -FZRA BR OVC007
     FM012100 18003KT 2SM -DZ BR OVC005
     FM020600 24004KT 1SM BR OVC003
     FM021300 25003KT P6SM OVC050=



000
FTUS41 KRNK 011725
TAFLWB
TAF
KLWB 011725Z 0118/0218 03003KT 5SM -FZRAPL BR SCT004 OVC027
     FM012000 00000KT 1SM BR OVC004
     FM020300 26004KT 5SM BR OVC007
     FM020900 28007KT 4SM -SN SCT005 OVC012
     FM021300 30010G17KT P6SM OVC015=



000
FTUS41 KRNK 011725
TAFLYH
TAF
KLYH 011725Z 0118/0218 09002KT 6SM -FZRAPL BR OVC019
     FM012200 20004KT 2SM BR OVC008
     FM020600 22003KT 4SM BR OVC025
     FM021000 24002KT 1SM BR OVC002
     FM021200 25005KT P6SM OVC050
     FM021500 30009G18KT P6SM BKN050=



000
FTUS41 KRNK 011725
TAFROA
TAF
KROA 011725Z 0118/0218 12007KT P6SM SCT017 OVC035
     FM012000 18003KT P6SM OVC027
     FM020400 25004KT 4SM BR OVC020
     FM020900 29007KT P6SM BKN040
     FM021200 30012G24KT P6SM BKN050=



000
FTUS41 KRNK 011725
TAFLWB
TAF
KLWB 011725Z 0118/0218 03003KT 5SM -FZRAPL BR SCT004 OVC027
     FM012000 00000KT 1SM BR OVC004
     FM020300 26004KT 5SM BR OVC007
     FM020900 28007KT 4SM -SN SCT005 OVC012
     FM021300 30010G17KT P6SM OVC015=



000
FTUS41 KRNK 011725
TAFROA
TAF
KROA 011725Z 0118/0218 12007KT P6SM SCT017 OVC035
     FM012000 18003KT P6SM OVC027
     FM020400 25004KT 4SM BR OVC020
     FM020900 29007KT P6SM BKN040
     FM021200 30012G24KT P6SM BKN050=



000
FTUS41 KRNK 011725
TAFBLF
TAF
KBLF 011725Z 0118/0218 21008KT P6SM SCT015 OVC035
     FM012000 23005KT 5SM -DZ BR OVC003
     FM020100 26008KT 1/2SM FG OVC001
     FM020900 28010KT 2SM -SN OVC005
     FM021400 29014G22KT P6SM OVC007=



000
FTUS41 KRNK 011725
TAFLYH
TAF
KLYH 011725Z 0118/0218 09002KT 6SM -FZRAPL BR OVC019
     FM012200 20004KT 2SM BR OVC008
     FM020600 22003KT 4SM BR OVC025
     FM021000 24002KT 1SM BR OVC002
     FM021200 25005KT P6SM OVC050
     FM021500 30009G18KT P6SM BKN050=



000
FTUS41 KRNK 011725
TAFDAN
TAF
KDAN 011725Z 0118/0218 06002KT 6SM -FZRA BR SCT007 OVC017
      TEMPO 0118/0120 2SM -FZRA BR OVC007
     FM012100 18003KT 2SM -DZ BR OVC005
     FM020600 24004KT 1SM BR OVC003
     FM021300 25003KT P6SM OVC050=



000
FTUS41 KRNK 011603 AAA
TAFBLF
TAF AMD
KBLF 011603Z 0116/0212 21008KT 6SM -RA BR OVC035
     FM012000 23005KT 1SM -DZ BR OVC003
     FM020100 26008KT 1/2SM FG OVC001
     FM020900 28010KT 2SM -SN OVC005=



000
FTUS41 KRNK 011603 AAA
TAFBLF
TAF AMD
KBLF 011603Z 0116/0212 21008KT 6SM -RA BR OVC035
     FM012000 23005KT 1SM -DZ BR OVC003
     FM020100 26008KT 1/2SM FG OVC001
     FM020900 28010KT 2SM -SN OVC005=



000
FTUS41 KRNK 011603 AAA
TAFBLF
TAF AMD
KBLF 011603Z 0116/0212 21008KT 6SM -RA BR OVC035
     FM012000 23005KT 1SM -DZ BR OVC003
     FM020100 26008KT 1/2SM FG OVC001
     FM020900 28010KT 2SM -SN OVC005=



000
FTUS41 KRNK 011603 AAA
TAFBLF
TAF AMD
KBLF 011603Z 0116/0212 21008KT 6SM -RA BR OVC035
     FM012000 23005KT 1SM -DZ BR OVC003
     FM020100 26008KT 1/2SM FG OVC001
     FM020900 28010KT 2SM -SN OVC005=



000
FTUS41 KRNK 011224 AAA
TAFLWB
TAF AMD
KLWB 011224Z 0112/0212 02008KT 4SM -SNPL SCT015 OVC050
      TEMPO 0112/0114 2SM -SN OVC015
     FM011400 04005KT 5SM -SNPL SCT012 OVC025
     FM011600 03003KT 2SM -FZRAPL BR SCT004 OVC012
     FM012000 00000KT 1SM BR OVC004
     FM020300 26004KT 5SM BR OVC007
     FM020900 28007KT 4SM -SN SCT005 OVC012=



000
FTUS41 KRNK 011224 AAA
TAFLWB
TAF AMD
KLWB 011224Z 0112/0212 02008KT 4SM -SNPL SCT015 OVC050
      TEMPO 0112/0114 2SM -SN OVC015
     FM011400 04005KT 5SM -SNPL SCT012 OVC025
     FM011600 03003KT 2SM -FZRAPL BR SCT004 OVC012
     FM012000 00000KT 1SM BR OVC004
     FM020300 26004KT 5SM BR OVC007
     FM020900 28007KT 4SM -SN SCT005 OVC012=



000
FTUS41 KRNK 011127
TAFROA
TAF
KROA 011127Z 0112/0212 00000KT P6SM -SNPL OVC025
     FM011400 12007KT 5SM -FZRAPL BR SCT007 OVC015
     FM012000 18003KT 2SM BR OVC005
     FM020400 25004KT 4SM BR OVC020
     FM020900 29007KT P6SM BKN040=



000
FTUS41 KRNK 011127
TAFLWB
TAF
KLWB 011127Z 0112/0212 01005KT 4SM -SN BKN005 OVC012
      TEMPO 0112/0114 1SM -SN
     FM011400 04005KT 5SM -SNPL SCT012 OVC025
     FM011600 03003KT 2SM -FZRAPL BR SCT004 OVC012
     FM012000 00000KT 1SM BR OVC004
     FM020300 26004KT 5SM BR OVC007
     FM020900 28007KT 4SM -SN SCT005 OVC012=



000
FTUS41 KRNK 011127
TAFBLF
TAF
KBLF 011127Z 0112/0212 16006G14KT P6SM -SNPL SCT025 OVC060
     FM011400 15008KT P6SM -FZRAPL SCT012 OVC040
     FM011600 21008KT 2SM -RA BR OVC015
     FM012000 23005KT 1SM -DZ BR OVC003
     FM020100 26008KT 1/2SM FG OVC001
     FM020900 28010KT 2SM -SN OVC005=



000
FTUS41 KRNK 011127
TAFLYH
TAF
KLYH 011127Z 0112/0212 00000KT P6SM OVC025
     FM011400 09002KT 4SM -FZRAPL BR OVC007
     FM012200 20004KT 2SM BR OVC004
     FM020600 22003KT 4SM BR OVC025
     FM021000 24002KT 1SM BR OVC002=



000
FTUS41 KRNK 011127
TAFDAN
TAF
KDAN 011127Z 0112/0212 00000KT P6SM -FZRAPL SCT015 OVC025
     FM011400 06002KT 4SM -FZRA BR OVC007
     FM012100 18003KT 2SM -DZ BR OVC005
     FM020600 24004KT 1SM BR OVC003=



000
FTUS41 KRNK 011127
TAFLYH
TAF
KLYH 011127Z 0112/0212 00000KT P6SM OVC025
     FM011400 09002KT 4SM -FZRAPL BR OVC007
     FM012200 20004KT 2SM BR OVC004
     FM020600 22003KT 4SM BR OVC025
     FM021000 24002KT 1SM BR OVC002=



000
FTUS41 KRNK 011127
TAFLWB
TAF
KLWB 011127Z 0112/0212 01005KT 4SM -SN BKN005 OVC012
      TEMPO 0112/0114 1SM -SN
     FM011400 04005KT 5SM -SNPL SCT012 OVC025
     FM011600 03003KT 2SM -FZRAPL BR SCT004 OVC012
     FM012000 00000KT 1SM BR OVC004
     FM020300 26004KT 5SM BR OVC007
     FM020900 28007KT 4SM -SN SCT005 OVC012=



000
FTUS41 KRNK 011127
TAFBLF
TAF
KBLF 011127Z 0112/0212 16006G14KT P6SM -SNPL SCT025 OVC060
     FM011400 15008KT P6SM -FZRAPL SCT012 OVC040
     FM011600 21008KT 2SM -RA BR OVC015
     FM012000 23005KT 1SM -DZ BR OVC003
     FM020100 26008KT 1/2SM FG OVC001
     FM020900 28010KT 2SM -SN OVC005=



000
FTUS41 KRNK 011127
TAFROA
TAF
KROA 011127Z 0112/0212 00000KT P6SM -SNPL OVC025
     FM011400 12007KT 5SM -FZRAPL BR SCT007 OVC015
     FM012000 18003KT 2SM BR OVC005
     FM020400 25004KT 4SM BR OVC020
     FM020900 29007KT P6SM BKN040=



000
FTUS41 KRNK 011127
TAFDAN
TAF
KDAN 011127Z 0112/0212 00000KT P6SM -FZRAPL SCT015 OVC025
     FM011400 06002KT 4SM -FZRA BR OVC007
     FM012100 18003KT 2SM -DZ BR OVC005
     FM020600 24004KT 1SM BR OVC003=



000
FTUS41 KRNK 010520
TAFROA
TAF
KROA 010520Z 0106/0206 14007KT P6SM BKN080
     FM010900 14005KT P6SM SCT015 OVC080
     FM011100 14005KT P6SM -SNPL BKN007 OVC015
     FM011400 12007KT 5SM -FZRA BR OVC007
     FM012000 18003KT 2SM BR OVC005=



000
FTUS41 KRNK 010520
TAFLWB
TAF
KLWB 010520Z 0106/0206 02004KT P6SM BKN070 OVC120
     FM011200 04005KT 5SM -SNPL SCT012 OVC025
     FM011600 03003KT 2SM -FZRAPL BR SCT004 OVC012
     FM012200 00000KT 1SM BR OVC004=



000
FTUS41 KRNK 010520
TAFLWB
TAF
KLWB 010520Z 0106/0206 02004KT P6SM BKN070 OVC120
     FM011200 04005KT 5SM -SNPL SCT012 OVC025
     FM011600 03003KT 2SM -FZRAPL BR SCT004 OVC012
     FM012200 00000KT 1SM BR OVC004=



000
FTUS41 KRNK 010520
TAFLYH
TAF
KLYH 010520Z 0106/0206 00000KT P6SM BKN090
     FM010900 09003KT P6SM SCT020 OVC080
     FM011100 08002KT 6SM -SNPL BR SCT007 OVC020
     FM011400 09002KT 4SM -FZRA BR OVC007
     FM012200 20003KT 2SM BR OVC004=



000
FTUS41 KRNK 010520
TAFLWB
TAF
KLWB 010520Z 0106/0206 02004KT P6SM BKN070 OVC120
     FM011200 04005KT 5SM -SNPL SCT012 OVC025
     FM011600 03003KT 2SM -FZRAPL BR SCT004 OVC012
     FM012200 00000KT 1SM BR OVC004=



000
FTUS41 KRNK 010520
TAFLYH
TAF
KLYH 010520Z 0106/0206 00000KT P6SM BKN090
     FM010900 09003KT P6SM SCT020 OVC080
     FM011100 08002KT 6SM -SNPL BR SCT007 OVC020
     FM011400 09002KT 4SM -FZRA BR OVC007
     FM012200 20003KT 2SM BR OVC004=



000
FTUS41 KRNK 010520
TAFLYH
TAF
KLYH 010520Z 0106/0206 00000KT P6SM BKN090
     FM010900 09003KT P6SM SCT020 OVC080
     FM011100 08002KT 6SM -SNPL BR SCT007 OVC020
     FM011400 09002KT 4SM -FZRA BR OVC007
     FM012200 20003KT 2SM BR OVC004=



000
FTUS41 KRNK 010520
TAFROA
TAF
KROA 010520Z 0106/0206 14007KT P6SM BKN080
     FM010900 14005KT P6SM SCT015 OVC080
     FM011100 14005KT P6SM -SNPL BKN007 OVC015
     FM011400 12007KT 5SM -FZRA BR OVC007
     FM012000 18003KT 2SM BR OVC005=



000
FTUS41 KRNK 010520
TAFBLF
TAF
KBLF 010520Z 0106/0206 15010G17KT P6SM OVC100
     FM011000 15008KT P6SM -FZRAPL SCT012 OVC040
     FM011200 19008KT 3SM -FZRA BR OVC007
     FM011600 21008KT 2SM -RA BR OVC005
     FM012000 23005KT 1SM -DZ BR OVC003=



000
FTUS41 KRNK 010520
TAFDAN
TAF
KDAN 010520Z 0106/0206 06004KT P6SM BKN050 OVC120
     FM011000 07003KT P6SM -FZRAPL SCT012 OVC025
     FM011200 06002KT 4SM -FZRA BR OVC007
     FM012100 18003KT 2SM BR OVC005=



000
FTUS41 KRNK 010520
TAFBLF
TAF
KBLF 010520Z 0106/0206 15010G17KT P6SM OVC100
     FM011000 15008KT P6SM -FZRAPL SCT012 OVC040
     FM011200 19008KT 3SM -FZRA BR OVC007
     FM011600 21008KT 2SM -RA BR OVC005
     FM012000 23005KT 1SM -DZ BR OVC003=



000
FTUS41 KRNK 010520
TAFDAN
TAF
KDAN 010520Z 0106/0206 06004KT P6SM BKN050 OVC120
     FM011000 07003KT P6SM -FZRAPL SCT012 OVC025
     FM011200 06002KT 4SM -FZRA BR OVC007
     FM012100 18003KT 2SM BR OVC005=



000
FTUS41 KRNK 010520
TAFBLF
TAF
KBLF 010520Z 0106/0206 15010G17KT P6SM OVC100
     FM011000 15008KT P6SM -FZRAPL SCT012 OVC040
     FM011200 19008KT 3SM -FZRA BR OVC007
     FM011600 21008KT 2SM -RA BR OVC005
     FM012000 23005KT 1SM -DZ BR OVC003=



000
FTUS41 KRNK 010520
TAFROA
TAF
KROA 010520Z 0106/0206 14007KT P6SM BKN080
     FM010900 14005KT P6SM SCT015 OVC080
     FM011100 14005KT P6SM -SNPL BKN007 OVC015
     FM011400 12007KT 5SM -FZRA BR OVC007
     FM012000 18003KT 2SM BR OVC005=



000
FTUS41 KRNK 010520
TAFROA
TAF
KROA 010520Z 0106/0206 14007KT P6SM BKN080
     FM010900 14005KT P6SM SCT015 OVC080
     FM011100 14005KT P6SM -SNPL BKN007 OVC015
     FM011400 12007KT 5SM -FZRA BR OVC007
     FM012000 18003KT 2SM BR OVC005=



000
FTUS41 KRNK 010520
TAFDAN
TAF
KDAN 010520Z 0106/0206 06004KT P6SM BKN050 OVC120
     FM011000 07003KT P6SM -FZRAPL SCT012 OVC025
     FM011200 06002KT 4SM -FZRA BR OVC007
     FM012100 18003KT 2SM BR OVC005=



000
FTUS41 KRNK 010520
TAFBLF
TAF
KBLF 010520Z 0106/0206 15010G17KT P6SM OVC100
     FM011000 15008KT P6SM -FZRAPL SCT012 OVC040
     FM011200 19008KT 3SM -FZRA BR OVC007
     FM011600 21008KT 2SM -RA BR OVC005
     FM012000 23005KT 1SM -DZ BR OVC003=



000
FTUS41 KRNK 010520
TAFLYH
TAF
KLYH 010520Z 0106/0206 00000KT P6SM BKN090
     FM010900 09003KT P6SM SCT020 OVC080
     FM011100 08002KT 6SM -SNPL BR SCT007 OVC020
     FM011400 09002KT 4SM -FZRA BR OVC007
     FM012200 20003KT 2SM BR OVC004=



000
FTUS41 KRNK 010520
TAFDAN
TAF
KDAN 010520Z 0106/0206 06004KT P6SM BKN050 OVC120
     FM011000 07003KT P6SM -FZRAPL SCT012 OVC025
     FM011200 06002KT 4SM -FZRA BR OVC007
     FM012100 18003KT 2SM BR OVC005=



000
FTUS41 KRNK 010520
TAFLWB
TAF
KLWB 010520Z 0106/0206 02004KT P6SM BKN070 OVC120
     FM011200 04005KT 5SM -SNPL SCT012 OVC025
     FM011600 03003KT 2SM -FZRAPL BR SCT004 OVC012
     FM012200 00000KT 1SM BR OVC004=



000
FTUS41 KRNK 282340
TAFBLF
TAF
KBLF 282340Z 0100/0124 13006KT P6SM OVC060
     FM010900 14004KT P6SM -FZRAPL SCT012 OVC040
     FM011200 21008KT 3SM -FZRA BR OVC007
     FM011600 23008KT 2SM -RA BR OVC005
     FM012000 23005KT 1SM -DZ BR OVC003=



000
FTUS41 KRNK 282340
TAFDAN
TAF
KDAN 282340Z 0100/0124 10004KT P6SM BKN150
     FM010400 06004KT P6SM BKN050 OVC120
     FM011000 07003KT P6SM -FZRAPL SCT012 OVC025
     FM011200 06002KT 4SM -FZRA BR OVC007
     FM012100 18003KT 2SM BR OVC005=



000
FTUS41 KRNK 282340
TAFLYH
TAF
KLYH 282340Z 0100/0124 00000KT P6SM OVC090
     FM010900 09003KT P6SM SCT020 OVC050
     FM011100 08002KT 6SM -SNPL BR SCT007 OVC012
     FM011400 09002KT 4SM -FZRA BR OVC007
     FM012200 20003KT 2SM BR OVC004=



000
FTUS41 KRNK 282340
TAFROA
TAF
KROA 282340Z 0100/0124 11007KT P6SM OVC080
     FM010900 10003KT P6SM SCT007 OVC020
     FM011100 11005KT P6SM -SNPL BKN007 OVC015
     FM011400 12007KT 5SM -FZRA BR OVC007
     FM012000 18003KT 2SM BR OVC005=



000
FTUS41 KRNK 282340
TAFLWB
TAF
KLWB 282340Z 0100/0124 00000KT P6SM BKN070
     FM010600 05003KT P6SM OVC050
     FM011200 04005KT 5SM -SNPL SCT012 OVC025
     FM011600 03003KT 2SM -FZRAPL BR SCT004 OVC012
     FM012200 00000KT 1SM BR OVC004=



000
FTUS41 KRNK 282340
TAFBLF
TAF
KBLF 282340Z 0100/0124 13006KT P6SM OVC060
     FM010900 14004KT P6SM -FZRAPL SCT012 OVC040
     FM011200 21008KT 3SM -FZRA BR OVC007
     FM011600 23008KT 2SM -RA BR OVC005
     FM012000 23005KT 1SM -DZ BR OVC003=



000
FTUS41 KRNK 282340
TAFLYH
TAF
KLYH 282340Z 0100/0124 00000KT P6SM OVC090
     FM010900 09003KT P6SM SCT020 OVC050
     FM011100 08002KT 6SM -SNPL BR SCT007 OVC012
     FM011400 09002KT 4SM -FZRA BR OVC007
     FM012200 20003KT 2SM BR OVC004=



000
FTUS41 KRNK 282340
TAFROA
TAF
KROA 282340Z 0100/0124 11007KT P6SM OVC080
     FM010900 10003KT P6SM SCT007 OVC020
     FM011100 11005KT P6SM -SNPL BKN007 OVC015
     FM011400 12007KT 5SM -FZRA BR OVC007
     FM012000 18003KT 2SM BR OVC005=



000
FTUS41 KRNK 282340
TAFDAN
TAF
KDAN 282340Z 0100/0124 10004KT P6SM BKN150
     FM010400 06004KT P6SM BKN050 OVC120
     FM011000 07003KT P6SM -FZRAPL SCT012 OVC025
     FM011200 06002KT 4SM -FZRA BR OVC007
     FM012100 18003KT 2SM BR OVC005=



000
FTUS41 KRNK 282340
TAFLWB
TAF
KLWB 282340Z 0100/0124 00000KT P6SM BKN070
     FM010600 05003KT P6SM OVC050
     FM011200 04005KT 5SM -SNPL SCT012 OVC025
     FM011600 03003KT 2SM -FZRAPL BR SCT004 OVC012
     FM012200 00000KT 1SM BR OVC004=



000
FTUS41 KRNK 282340
TAFLYH
TAF
KLYH 282340Z 0100/0124 00000KT P6SM OVC090
     FM010900 09003KT P6SM SCT020 OVC050
     FM011100 08002KT 6SM -SNPL BR SCT007 OVC012
     FM011400 09002KT 4SM -FZRA BR OVC007
     FM012200 20003KT 2SM BR OVC004=



000
FTUS41 KRNK 282340
TAFROA
TAF
KROA 282340Z 0100/0124 11007KT P6SM OVC080
     FM010900 10003KT P6SM SCT007 OVC020
     FM011100 11005KT P6SM -SNPL BKN007 OVC015
     FM011400 12007KT 5SM -FZRA BR OVC007
     FM012000 18003KT 2SM BR OVC005=



000
FTUS41 KRNK 282340
TAFBLF
TAF
KBLF 282340Z 0100/0124 13006KT P6SM OVC060
     FM010900 14004KT P6SM -FZRAPL SCT012 OVC040
     FM011200 21008KT 3SM -FZRA BR OVC007
     FM011600 23008KT 2SM -RA BR OVC005
     FM012000 23005KT 1SM -DZ BR OVC003=



000
FTUS41 KRNK 282340
TAFDAN
TAF
KDAN 282340Z 0100/0124 10004KT P6SM BKN150
     FM010400 06004KT P6SM BKN050 OVC120
     FM011000 07003KT P6SM -FZRAPL SCT012 OVC025
     FM011200 06002KT 4SM -FZRA BR OVC007
     FM012100 18003KT 2SM BR OVC005=



000
FTUS41 KRNK 282340
TAFROA
TAF
KROA 282340Z 0100/0124 11007KT P6SM OVC080
     FM010900 10003KT P6SM SCT007 OVC020
     FM011100 11005KT P6SM -SNPL BKN007 OVC015
     FM011400 12007KT 5SM -FZRA BR OVC007
     FM012000 18003KT 2SM BR OVC005=



000
FTUS41 KRNK 282340
TAFLWB
TAF
KLWB 282340Z 0100/0124 00000KT P6SM BKN070
     FM010600 05003KT P6SM OVC050
     FM011200 04005KT 5SM -SNPL SCT012 OVC025
     FM011600 03003KT 2SM -FZRAPL BR SCT004 OVC012
     FM012200 00000KT 1SM BR OVC004=



000
FTUS41 KRNK 282340
TAFBLF
TAF
KBLF 282340Z 0100/0124 13006KT P6SM OVC060
     FM010900 14004KT P6SM -FZRAPL SCT012 OVC040
     FM011200 21008KT 3SM -FZRA BR OVC007
     FM011600 23008KT 2SM -RA BR OVC005
     FM012000 23005KT 1SM -DZ BR OVC003=



000
FTUS41 KRNK 282340
TAFDAN
TAF
KDAN 282340Z 0100/0124 10004KT P6SM BKN150
     FM010400 06004KT P6SM BKN050 OVC120
     FM011000 07003KT P6SM -FZRAPL SCT012 OVC025
     FM011200 06002KT 4SM -FZRA BR OVC007
     FM012100 18003KT 2SM BR OVC005=



000
FTUS41 KRNK 282340
TAFLYH
TAF
KLYH 282340Z 0100/0124 00000KT P6SM OVC090
     FM010900 09003KT P6SM SCT020 OVC050
     FM011100 08002KT 6SM -SNPL BR SCT007 OVC012
     FM011400 09002KT 4SM -FZRA BR OVC007
     FM012200 20003KT 2SM BR OVC004=



000
FTUS41 KRNK 282340
TAFLWB
TAF
KLWB 282340Z 0100/0124 00000KT P6SM BKN070
     FM010600 05003KT P6SM OVC050
     FM011200 04005KT 5SM -SNPL SCT012 OVC025
     FM011600 03003KT 2SM -FZRAPL BR SCT004 OVC012
     FM012200 00000KT 1SM BR OVC004=



000
FTUS41 KRNK 282112 AAA
TAFLWB
TAF AMD
KLWB 282112Z 2821/0118 02005KT P6SM SCT025 OVC050
     FM282300 VRB03KT P6SM BKN035 BKN100
     FM010600 05003KT P6SM OVC015
     FM011200 03003KT 1 1/2SM -FZRA BR OVC015=



000
FTUS41 KRNK 282112 AAA
TAFLWB
TAF AMD
KLWB 282112Z 2821/0118 02005KT P6SM SCT025 OVC050
     FM282300 VRB03KT P6SM BKN035 BKN100
     FM010600 05003KT P6SM OVC015
     FM011200 03003KT 1 1/2SM -FZRA BR OVC015=



000
FTUS41 KRNK 282111 AAA
TAFBLF
TAF AMD
KBLF 282111Z 2821/0118 15009KT P6SM SCT015 OVC035
     FM282300 20004KT P6SM OVC025
     FM010300 14004KT P6SM SCT012 BKN050
     FM010900 15006KT P6SM BKN009 OVC025
     FM011200 21008KT 1 1/2SM -FZRA BR OVC004=



000
FTUS41 KRNK 282111 AAA
TAFBLF
TAF AMD
KBLF 282111Z 2821/0118 15009KT P6SM SCT015 OVC035
     FM282300 20004KT P6SM OVC025
     FM010300 14004KT P6SM SCT012 BKN050
     FM010900 15006KT P6SM BKN009 OVC025
     FM011200 21008KT 1 1/2SM -FZRA BR OVC004=



000
FTUS41 KRNK 282111 AAA
TAFBLF
TAF AMD
KBLF 282111Z 2821/0118 15009KT P6SM SCT015 OVC035
     FM282300 20004KT P6SM OVC025
     FM010300 14004KT P6SM SCT012 BKN050
     FM010900 15006KT P6SM BKN009 OVC025
     FM011200 21008KT 1 1/2SM -FZRA BR OVC004=



000
FTUS41 KRNK 282110 AAA
TAFROA
TAF AMD
KROA 282110Z 2821/0118 14006KT P6SM BKN035
     FM282300 12005KT P6SM OVC015
     FM010200 10003KT P6SM SCT007 OVC020
     FM011000 11005KT P6SM -SNPL BKN007 OVC015
     FM011400 12007KT 5SM -FZRA BR OVC007=



000
FTUS41 KRNK 282110 AAA
TAFROA
TAF AMD
KROA 282110Z 2821/0118 14006KT P6SM BKN035
     FM282300 12005KT P6SM OVC015
     FM010200 10003KT P6SM SCT007 OVC020
     FM011000 11005KT P6SM -SNPL BKN007 OVC015
     FM011400 12007KT 5SM -FZRA BR OVC007=



000
FTUS41 KRNK 281721
TAFDAN
TAF
KDAN 281721Z 2818/0118 04007KT P6SM BKN035
     FM281900 07004KT P6SM SCT018 BKN100
     FM010400 06004KT P6SM SCT015 BKN050
     FM011000 07003KT P6SM -FZRA SCT007 OVC015
     FM011200 06002KT 4SM -FZRA BR OVC007=



000
FTUS41 KRNK 281721
TAFBLF
TAF
KBLF 281721Z 2818/0118 15009KT P6SM SCT015 OVC060
     FM282100 20004KT P6SM OVC025
     FM010100 14006KT P6SM SCT012 BKN050
     FM010900 15006KT P6SM BKN009 OVC025
     FM011200 21006KT 1 1/2SM -FZRA BR OVC004=



000
FTUS41 KRNK 281721
TAFLWB
TAF
KLWB 281721Z 2818/0118 02005KT P6SM SCT025 OVC050
     FM282100 VRB03KT P6SM BKN030 BKN100
     FM010100 05003KT P6SM OVC015
     FM011200 03003KT 1 1/2SM -FZRA BR OVC015=



000
FTUS41 KRNK 281721
TAFLWB
TAF
KLWB 281721Z 2818/0118 02005KT P6SM SCT025 OVC050
     FM282100 VRB03KT P6SM BKN030 BKN100
     FM010100 05003KT P6SM OVC015
     FM011200 03003KT 1 1/2SM -FZRA BR OVC015=



000
FTUS41 KRNK 281721
TAFBLF
TAF
KBLF 281721Z 2818/0118 15009KT P6SM SCT015 OVC060
     FM282100 20004KT P6SM OVC025
     FM010100 14006KT P6SM SCT012 BKN050
     FM010900 15006KT P6SM BKN009 OVC025
     FM011200 21006KT 1 1/2SM -FZRA BR OVC004=



000
FTUS41 KRNK 281721
TAFLYH
TAF
KLYH 281721Z 2818/0118 06006KT P6SM OVC035
     FM282200 15005KT P6SM BKN022 OVC100
     FM010300 09003KT P6SM BKN015
     FM011000 08002KT 6SM -SN BR SCT006 BKN012
     FM011400 09002KT 4SM -FZRA BR OVC004=



000
FTUS41 KRNK 281721
TAFROA
TAF
KROA 281721Z 2818/0118 14006KT P6SM BKN035
     FM282100 12005KT P6SM OVC015
     FM010200 10003KT P6SM SCT007 OVC020
     FM011000 11005KT P6SM -SNPL BKN007 OVC015
     FM011400 12007KT 5SM -FZRA BR OVC007=



000
FTUS41 KRNK 281721
TAFDAN
TAF
KDAN 281721Z 2818/0118 04007KT P6SM BKN035
     FM281900 07004KT P6SM SCT018 BKN100
     FM010400 06004KT P6SM SCT015 BKN050
     FM011000 07003KT P6SM -FZRA SCT007 OVC015
     FM011200 06002KT 4SM -FZRA BR OVC007=



000
FTUS41 KRNK 281721
TAFROA
TAF
KROA 281721Z 2818/0118 14006KT P6SM BKN035
     FM282100 12005KT P6SM OVC015
     FM010200 10003KT P6SM SCT007 OVC020
     FM011000 11005KT P6SM -SNPL BKN007 OVC015
     FM011400 12007KT 5SM -FZRA BR OVC007=



000
FTUS41 KRNK 281721
TAFLYH
TAF
KLYH 281721Z 2818/0118 06006KT P6SM OVC035
     FM282200 15005KT P6SM BKN022 OVC100
     FM010300 09003KT P6SM BKN015
     FM011000 08002KT 6SM -SN BR SCT006 BKN012
     FM011400 09002KT 4SM -FZRA BR OVC004=



000
FTUS41 KRNK 281215 AAA
TAFROA
TAF AMD
KROA 281215Z 2812/0112 00000KT P6SM SCT025 BKN040
      TEMPO 2812/2814 BKN025
     FM281500 14005KT P6SM BKN025
     FM282100 12005KT P6SM OVC015
     FM010200 10003KT P6SM SCT007 OVC020=



000
FTUS41 KRNK 281215 AAA
TAFROA
TAF AMD
KROA 281215Z 2812/0112 00000KT P6SM SCT025 BKN040
      TEMPO 2812/2814 BKN025
     FM281500 14005KT P6SM BKN025
     FM282100 12005KT P6SM OVC015
     FM010200 10003KT P6SM SCT007 OVC020=



000
FTUS41 KRNK 281215 AAA
TAFROA
TAF AMD
KROA 281215Z 2812/0112 00000KT P6SM SCT025 BKN040
      TEMPO 2812/2814 BKN025
     FM281500 14005KT P6SM BKN025
     FM282100 12005KT P6SM OVC015
     FM010200 10003KT P6SM SCT007 OVC020=



000
FTUS41 KRNK 281125
TAFROA
TAF
KROA 281125Z 2812/0112 00000KT P6SM BKN040
     FM281600 14005KT P6SM BKN025
     FM282100 12005KT P6SM OVC015
     FM010200 10003KT P6SM SCT007 OVC020=



000
FTUS41 KRNK 281125
TAFDAN
TAF
KDAN 281125Z 2812/0112 03006KT P6SM BKN035
     FM281900 07004KT P6SM SCT018 BKN100
     FM010400 06004KT P6SM SCT015 BKN050
     FM011000 07003KT P6SM SCT007 OVC015=



000
FTUS41 KRNK 281125
TAFLYH
TAF
KLYH 281125Z 2812/0112 05007KT P6SM SCT040
     FM281800 06006KT P6SM OVC025
     FM282200 15005KT P6SM BKN022 OVC100
     FM010300 09003KT P6SM BKN015=



000
FTUS41 KRNK 281125
TAFLWB
TAF
KLWB 281125Z 2812/0112 03004KT P6SM BKN100
     FM281600 02004KT P6SM SCT020 BKN060
     FM281800 00000KT P6SM SCT025 OVC050
     FM282100 VRB03KT P6SM BKN030 BKN100
     FM010100 05003KT P6SM OVC015=



000
FTUS41 KRNK 281125
TAFDAN
TAF
KDAN 281125Z 2812/0112 03006KT P6SM BKN035
     FM281900 07004KT P6SM SCT018 BKN100
     FM010400 06004KT P6SM SCT015 BKN050
     FM011000 07003KT P6SM SCT007 OVC015=



000
FTUS41 KRNK 281125
TAFLWB
TAF
KLWB 281125Z 2812/0112 03004KT P6SM BKN100
     FM281600 02004KT P6SM SCT020 BKN060
     FM281800 00000KT P6SM SCT025 OVC050
     FM282100 VRB03KT P6SM BKN030 BKN100
     FM010100 05003KT P6SM OVC015=



000
FTUS41 KRNK 281125
TAFBLF
TAF
KBLF 281125Z 2812/0112 08004KT P6SM BKN100
     FM281500 VRB03KT P6SM SCT015 OVC060
     FM282100 20004KT P6SM OVC025
     FM010100 14006KT P6SM SCT012 BKN050
     FM010900 15006KT P6SM BKN009 OVC025=



000
FTUS41 KRNK 281125
TAFBLF
TAF
KBLF 281125Z 2812/0112 08004KT P6SM BKN100
     FM281500 VRB03KT P6SM SCT015 OVC060
     FM282100 20004KT P6SM OVC025
     FM010100 14006KT P6SM SCT012 BKN050
     FM010900 15006KT P6SM BKN009 OVC025=



000
FTUS41 KRNK 281125
TAFLYH
TAF
KLYH 281125Z 2812/0112 05007KT P6SM SCT040
     FM281800 06006KT P6SM OVC025
     FM282200 15005KT P6SM BKN022 OVC100
     FM010300 09003KT P6SM BKN015=



000
FTUS41 KRNK 281125
TAFROA
TAF
KROA 281125Z 2812/0112 00000KT P6SM BKN040
     FM281600 14005KT P6SM BKN025
     FM282100 12005KT P6SM OVC015
     FM010200 10003KT P6SM SCT007 OVC020=



000
FTUS41 KRNK 280855 AAA
TAFROA
TAF AMD
KROA 280855Z 2809/0106 10004KT P6SM BKN030
     FM281200 12006KT P6SM SCT020 BKN250
     FM281600 14005KT P6SM OVC020=



000
FTUS41 KRNK 280520
TAFDAN
TAF
KDAN 280520Z 2806/0106 03005KT P6SM SCT015
     FM281000 04006KT P6SM OVC012
     FM281900 07004KT P6SM SCT018 BKN100 OVC250=



000
FTUS41 KRNK 280520
TAFLYH
TAF
KLYH 280520Z 2806/0106 03005KT P6SM SCT040 BKN250
     FM281000 08006KT P6SM OVC035
     FM281500 VRB03KT P6SM OVC025
     FM282200 15005KT P6SM BKN022 OVC100=



000
FTUS41 KRNK 280520
TAFLYH
TAF
KLYH 280520Z 2806/0106 03005KT P6SM SCT040 BKN250
     FM281000 08006KT P6SM OVC035
     FM281500 VRB03KT P6SM OVC025
     FM282200 15005KT P6SM BKN022 OVC100=



000
FTUS41 KRNK 280520
TAFLWB
TAF
KLWB 280520Z 2806/0106 36004KT P6SM SCT250
     FM281600 02004KT P6SM SCT020 BKN250
     FM281800 00000KT P6SM OVC050
     FM282100 VRB03KT P6SM BKN025=



000
FTUS41 KRNK 280520
TAFDAN
TAF
KDAN 280520Z 2806/0106 03005KT P6SM SCT015
     FM281000 04006KT P6SM OVC012
     FM281900 07004KT P6SM SCT018 BKN100 OVC250=



000
FTUS41 KRNK 280520
TAFLYH
TAF
KLYH 280520Z 2806/0106 03005KT P6SM SCT040 BKN250
     FM281000 08006KT P6SM OVC035
     FM281500 VRB03KT P6SM OVC025
     FM282200 15005KT P6SM BKN022 OVC100=



000
FTUS41 KRNK 280520
TAFBLF
TAF
KBLF 280520Z 2806/0106 04003KT P6SM SCT025 BKN150
     FM281500 VRB03KT P6SM SCT015 OVC060
     FM282100 20004KT P6SM OVC025=



000
FTUS41 KRNK 280520
TAFROA
TAF
KROA 280520Z 2806/0106 02008KT P6SM FEW250
     FM281200 12006KT P6SM SCT020 BKN250
     FM281600 14005KT P6SM OVC020=



000
FTUS41 KRNK 280520
TAFROA
TAF
KROA 280520Z 2806/0106 02008KT P6SM FEW250
     FM281200 12006KT P6SM SCT020 BKN250
     FM281600 14005KT P6SM OVC020=



000
FTUS41 KRNK 280520
TAFROA
TAF
KROA 280520Z 2806/0106 02008KT P6SM FEW250
     FM281200 12006KT P6SM SCT020 BKN250
     FM281600 14005KT P6SM OVC020=



000
FTUS41 KRNK 280520
TAFLWB
TAF
KLWB 280520Z 2806/0106 36004KT P6SM SCT250
     FM281600 02004KT P6SM SCT020 BKN250
     FM281800 00000KT P6SM OVC050
     FM282100 VRB03KT P6SM BKN025=



000
FTUS41 KRNK 280520
TAFDAN
TAF
KDAN 280520Z 2806/0106 03005KT P6SM SCT015
     FM281000 04006KT P6SM OVC012
     FM281900 07004KT P6SM SCT018 BKN100 OVC250=



000
FTUS41 KRNK 280520
TAFBLF
TAF
KBLF 280520Z 2806/0106 04003KT P6SM SCT025 BKN150
     FM281500 VRB03KT P6SM SCT015 OVC060
     FM282100 20004KT P6SM OVC025=



000
FTUS41 KRNK 280520
TAFDAN
TAF
KDAN 280520Z 2806/0106 03005KT P6SM SCT015
     FM281000 04006KT P6SM OVC012
     FM281900 07004KT P6SM SCT018 BKN100 OVC250=



000
FTUS41 KRNK 280520
TAFLWB
TAF
KLWB 280520Z 2806/0106 36004KT P6SM SCT250
     FM281600 02004KT P6SM SCT020 BKN250
     FM281800 00000KT P6SM OVC050
     FM282100 VRB03KT P6SM BKN025=



000
FTUS41 KRNK 280520
TAFBLF
TAF
KBLF 280520Z 2806/0106 04003KT P6SM SCT025 BKN150
     FM281500 VRB03KT P6SM SCT015 OVC060
     FM282100 20004KT P6SM OVC025=



000
FTUS41 KRNK 280520
TAFLYH
TAF
KLYH 280520Z 2806/0106 03005KT P6SM SCT040 BKN250
     FM281000 08006KT P6SM OVC035
     FM281500 VRB03KT P6SM OVC025
     FM282200 15005KT P6SM BKN022 OVC100=



000
FTUS41 KRNK 280520
TAFBLF
TAF
KBLF 280520Z 2806/0106 04003KT P6SM SCT025 BKN150
     FM281500 VRB03KT P6SM SCT015 OVC060
     FM282100 20004KT P6SM OVC025=



000
FTUS41 KRNK 280520
TAFROA
TAF
KROA 280520Z 2806/0106 02008KT P6SM FEW250
     FM281200 12006KT P6SM SCT020 BKN250
     FM281600 14005KT P6SM OVC020=



000
FTUS41 KRNK 280520
TAFLWB
TAF
KLWB 280520Z 2806/0106 36004KT P6SM SCT250
     FM281600 02004KT P6SM SCT020 BKN250
     FM281800 00000KT P6SM OVC050
     FM282100 VRB03KT P6SM BKN025=



000
FTUS41 KRNK 272340
TAFBLF
TAF
KBLF 272340Z 2800/2824 27006KT P6SM SKC
     FM280100 04003KT P6SM SCT025 BKN150
     FM281500 VRB03KT P6SM SCT015 OVC060
     FM282100 20004KT P6SM OVC025=



000
FTUS41 KRNK 272340
TAFLYH
TAF
KLYH 272340Z 2800/2824 28005KT P6SM SKC
     FM281000 12006KT P6SM OVC020
     FM281500 VRB03KT P6SM OVC012
     FM282200 15005KT P6SM BKN022=



000
FTUS41 KRNK 272340
TAFROA
TAF
KROA 272340Z 2800/2824 32011KT P6SM FEW250
     FM281200 12006KT P6SM OVC020
     FM281600 14005KT P6SM OVC012
     FM282000 15005KT P6SM OVC008=



000
FTUS41 KRNK 272340
TAFLWB
TAF
KLWB 272340Z 2800/2824 36005KT P6SM SKC
     FM281600 02002KT P6SM BKN020
     FM281800 00000KT P6SM OVC050
     FM282100 VRB03KT P6SM BKN025=



000
FTUS41 KRNK 272340
TAFDAN
TAF
KDAN 272340Z 2800/2824 35007KT P6SM SKC
     FM280300 03005KT P6SM SCT250
     FM281000 04006KT P6SM OVC012
     FM281900 05004KT P6SM SCT018=



000
FTUS41 KRNK 272340
TAFLYH
TAF
KLYH 272340Z 2800/2824 28005KT P6SM SKC
     FM281000 12006KT P6SM OVC020
     FM281500 VRB03KT P6SM OVC012
     FM282200 15005KT P6SM BKN022=



000
FTUS41 KRNK 272340
TAFDAN
TAF
KDAN 272340Z 2800/2824 35007KT P6SM SKC
     FM280300 03005KT P6SM SCT250
     FM281000 04006KT P6SM OVC012
     FM281900 05004KT P6SM SCT018=



000
FTUS41 KRNK 272340
TAFLWB
TAF
KLWB 272340Z 2800/2824 36005KT P6SM SKC
     FM281600 02002KT P6SM BKN020
     FM281800 00000KT P6SM OVC050
     FM282100 VRB03KT P6SM BKN025=



000
FTUS41 KRNK 272340
TAFBLF
TAF
KBLF 272340Z 2800/2824 27006KT P6SM SKC
     FM280100 04003KT P6SM SCT025 BKN150
     FM281500 VRB03KT P6SM SCT015 OVC060
     FM282100 20004KT P6SM OVC025=



000
FTUS41 KRNK 272340
TAFROA
TAF
KROA 272340Z 2800/2824 32011KT P6SM FEW250
     FM281200 12006KT P6SM OVC020
     FM281600 14005KT P6SM OVC012
     FM282000 15005KT P6SM OVC008=



000
FTUS41 KRNK 272340
TAFLYH
TAF
KLYH 272340Z 2800/2824 28005KT P6SM SKC
     FM281000 12006KT P6SM OVC020
     FM281500 VRB03KT P6SM OVC012
     FM282200 15005KT P6SM BKN022=



000
FTUS41 KRNK 272340
TAFLWB
TAF
KLWB 272340Z 2800/2824 36005KT P6SM SKC
     FM281600 02002KT P6SM BKN020
     FM281800 00000KT P6SM OVC050
     FM282100 VRB03KT P6SM BKN025=



000
FTUS41 KRNK 272340
TAFDAN
TAF
KDAN 272340Z 2800/2824 35007KT P6SM SKC
     FM280300 03005KT P6SM SCT250
     FM281000 04006KT P6SM OVC012
     FM281900 05004KT P6SM SCT018=



000
FTUS41 KRNK 272340
TAFROA
TAF
KROA 272340Z 2800/2824 32011KT P6SM FEW250
     FM281200 12006KT P6SM OVC020
     FM281600 14005KT P6SM OVC012
     FM282000 15005KT P6SM OVC008=



000
FTUS41 KRNK 272340
TAFBLF
TAF
KBLF 272340Z 2800/2824 27006KT P6SM SKC
     FM280100 04003KT P6SM SCT025 BKN150
     FM281500 VRB03KT P6SM SCT015 OVC060
     FM282100 20004KT P6SM OVC025=



000
FTUS41 KRNK 272340
TAFLYH
TAF
KLYH 272340Z 2800/2824 28005KT P6SM SKC
     FM281000 12006KT P6SM OVC020
     FM281500 VRB03KT P6SM OVC012
     FM282200 15005KT P6SM BKN022=



000
FTUS41 KRNK 272340
TAFDAN
TAF
KDAN 272340Z 2800/2824 35007KT P6SM SKC
     FM280300 03005KT P6SM SCT250
     FM281000 04006KT P6SM OVC012
     FM281900 05004KT P6SM SCT018=



000
FTUS41 KRNK 272340
TAFBLF
TAF
KBLF 272340Z 2800/2824 27006KT P6SM SKC
     FM280100 04003KT P6SM SCT025 BKN150
     FM281500 VRB03KT P6SM SCT015 OVC060
     FM282100 20004KT P6SM OVC025=



000
FTUS41 KRNK 272340
TAFROA
TAF
KROA 272340Z 2800/2824 32011KT P6SM FEW250
     FM281200 12006KT P6SM OVC020
     FM281600 14005KT P6SM OVC012
     FM282000 15005KT P6SM OVC008=



000
FTUS41 KRNK 272340
TAFLWB
TAF
KLWB 272340Z 2800/2824 36005KT P6SM SKC
     FM281600 02002KT P6SM BKN020
     FM281800 00000KT P6SM OVC050
     FM282100 VRB03KT P6SM BKN025=



    US Dept of Commerce
    National Oceanic and Atmospheric Administration
    National Weather Service
    1325 East West Highway
    Silver Spring, MD 20910
    Page Author: NWS Internet Services Team
Disclaimer
Information Quality
Credits
Glossary
Privacy Policy
Freedom of Information Act (FOIA)
About Us
Career Opportunities